Wetterdaten: Freitag, 23.06.2023
Datum Zeit Temp. Aussen Temp. o. S. Temp +5cm Feuchte Auss Luftdruck Regen Sonnenschein Regendauer Solar Windben Empfang
23.06.2023 00:00 17,2 C 16,1 C 13,3 C 99 % 1015,3 hPa 0,0 l/m 0 min 2 min 0 W/m 19,3 km/h (3 Bft) 97,87 %
23.06.2023 00:02 17,2 C 16,1 C 13,3 C 99 % 1015,3 hPa 0,0 l/m 0 min 2 min 0 W/m 25,7 km/h (4 Bft) 95,24 %
23.06.2023 00:04 17,2 C 16,1 C 13,3 C 99 % 1015,4 hPa 0,0 l/m 0 min 2 min 0 W/m 22,5 km/h (4 Bft) 97,87 %
23.06.2023 00:07 17,1 C 16,1 C 13,3 C 99 % 1015,6 hPa 0,0 l/m 0 min 3 min 0 W/m 29,0 km/h (5 Bft) 94,37 %
23.06.2023 00:08 17,1 C 16,1 C 12,8 C 99 % 1015,6 hPa 0,0 l/m 0 min 1 min 0 W/m 22,5 km/h (4 Bft) 100,00 %
23.06.2023 00:15 16,9 C 15,6 C 12,8 C 99 % 1015,9 hPa 0,0 l/m 0 min 5 min 0 W/m 25,7 km/h (4 Bft) 98,28 %
23.06.2023 00:16 16,9 C 15,6 C 12,8 C 99 % 1015,9 hPa 0,0 l/m 0 min 1 min 0 W/m 19,3 km/h (3 Bft) 95,83 %
23.06.2023 00:18 16,8 C 15,6 C 12,8 C 99 % 1015,9 hPa 0,0 l/m 0 min 2 min 0 W/m 32,2 km/h (5 Bft) 97,87 %
23.06.2023 00:20 16,8 C 15,6 C 12,8 C 99 % 1015,9 hPa 0,0 l/m 0 min 2 min 0 W/m 22,5 km/h (4 Bft) 97,87 %
23.06.2023 00:22 16,7 C 15,6 C 12,8 C 99 % 1015,8 hPa 0,0 l/m 0 min 2 min 0 W/m 22,5 km/h (4 Bft) 95,65 %
23.06.2023 00:24 16,7 C 15,6 C 12,8 C 99 % 1015,9 hPa 0,0 l/m 0 min 2 min 0 W/m 19,3 km/h (3 Bft) 97,87 %
23.06.2023 00:26 16,7 C 15,6 C 12,8 C 99 % 1015,9 hPa 0,0 l/m 0 min 2 min 0 W/m 12,9 km/h (3 Bft) 97,87 %
23.06.2023 00:28 16,6 C 15,6 C 12,8 C 99 % 1015,9 hPa 0,0 l/m 0 min 0 min 0 W/m 32,2 km/h (5 Bft) 97,87 %
23.06.2023 00:30 16,6 C 15,6 C 12,8 C 99 % 1015,9 hPa 0,0 l/m 0 min 2 min 0 W/m 29,0 km/h (5 Bft) 95,74 %
23.06.2023 00:32 16,6 C 15,6 C 12,8 C 99 % 1016,0 hPa 0,0 l/m 0 min 2 min 0 W/m 16,1 km/h (3 Bft) 97,87 %
23.06.2023 00:34 16,6 C 15,6 C 12,8 C 99 % 1015,9 hPa 0,0 l/m 0 min 2 min 0 W/m 16,1 km/h (3 Bft) 95,65 %
23.06.2023 00:36 16,6 C 15,6 C 12,8 C 99 % 1015,9 hPa 0,0 l/m 0 min 2 min 0 W/m 25,7 km/h (4 Bft) 97,87 %
23.06.2023 00:38 16,6 C 15,6 C 12,8 C 99 % 1015,9 hPa 0,0 l/m 0 min 2 min 0 W/m 32,2 km/h (5 Bft) 98,00 %
23.06.2023 00:40 16,5 C 15,6 C 12,8 C 99 % 1015,9 hPa 0,0 l/m 0 min 2 min 0 W/m 25,7 km/h (4 Bft) 95,74 %
23.06.2023 00:42 16,6 C 15,6 C 12,8 C 99 % 1015,9 hPa 0,0 l/m 0 min 2 min 0 W/m 25,7 km/h (4 Bft) 95,74 %
23.06.2023 00:44 16,5 C 15,6 C 12,8 C 99 % 1015,9 hPa 0,0 l/m 0 min 0 min 0 W/m 25,7 km/h (4 Bft) 95,74 %
23.06.2023 00:46 16,5 C 15,6 C 12,8 C 99 % 1015,9 hPa 0,0 l/m 0 min 0 min 0 W/m 12,9 km/h (3 Bft) 95,74 %
23.06.2023 00:48 16,6 C 15,6 C 12,8 C 99 % 1016,0 hPa 0,0 l/m 0 min 2 min 0 W/m 25,7 km/h (4 Bft) 93,88 %
23.06.2023 00:50 16,5 C 15,6 C 12,8 C 99 % 1016,1 hPa 0,0 l/m 0 min 2 min 0 W/m 32,2 km/h (5 Bft) 91,49 %
23.06.2023 00:52 16,5 C 15,6 C 12,8 C 99 % 1016,0 hPa 0,0 l/m 0 min 0 min 0 W/m 25,7 km/h (4 Bft) 91,49 %
23.06.2023 00:54 16,4 C 15,6 C 12,8 C 99 % 1015,9 hPa 0,0 l/m 0 min 0 min 0 W/m 25,7 km/h (4 Bft) 95,74 %
23.06.2023 00:56 16,4 C 15,6 C 12,8 C 99 % 1015,8 hPa 0,0 l/m 0 min 0 min 0 W/m 25,7 km/h (4 Bft) 93,62 %
23.06.2023 00:58 16,4 C 15,6 C 12,8 C 99 % 1015,9 hPa 0,0 l/m 0 min 0 min 0 W/m 19,3 km/h (3 Bft) 97,83 %
23.06.2023 01:00 16,4 C 15,6 C 12,8 C 99 % 1015,9 hPa 0,0 l/m 0 min 0 min 0 W/m 29,0 km/h (5 Bft) 97,87 %
23.06.2023 01:02 16,4 C 15,6 C 12,8 C 99 % 1015,9 hPa 0,0 l/m 0 min 0 min 0 W/m 19,3 km/h (3 Bft) 93,62 %
23.06.2023 01:04 16,4 C 15,6 C 12,8 C 99 % 1016,0 hPa 0,0 l/m 0 min 0 min 0 W/m 19,3 km/h (3 Bft) 97,87 %
23.06.2023 01:06 16,4 C 15,6 C 12,8 C 99 % 1016,1 hPa 0,0 l/m 0 min 0 min 0 W/m 19,3 km/h (3 Bft) 95,74 %
23.06.2023 01:08 16,4 C 15,6 C 12,8 C 99 % 1016,0 hPa 0,0 l/m 0 min 0 min 0 W/m 25,7 km/h (4 Bft) 97,87 %
23.06.2023 01:10 16,4 C 15,6 C 12,8 C 99 % 1016,1 hPa 0,0 l/m 0 min 0 min 0 W/m 22,5 km/h (4 Bft) 97,83 %
23.06.2023 01:12 16,3 C 15,6 C 12,8 C 99 % 1015,9 hPa 0,0 l/m 0 min 0 min 0 W/m 19,3 km/h (3 Bft) 100,00 %
23.06.2023 01:14 16,3 C 15,6 C 12,8 C 99 % 1016,0 hPa 0,0 l/m 0 min 0 min 0 W/m 29,0 km/h (5 Bft) 97,87 %
23.06.2023 01:16 16,3 C 15,6 C 12,8 C 99 % 1016,1 hPa 0,0 l/m 0 min 0 min 0 W/m 12,9 km/h (3 Bft) 100,00 %
23.06.2023 01:18 16,3 C 15,6 C 12,2 C 99 % 1015,9 hPa 0,0 l/m 0 min 2 min 0 W/m 19,3 km/h (3 Bft) 100,00 %
23.06.2023 01:20 16,3 C 15,6 C 12,2 C 99 % 1016,0 hPa 0,0 l/m 0 min 0 min 0 W/m 25,7 km/h (4 Bft) 100,00 %
23.06.2023 01:22 16,3 C 15,6 C 12,2 C 99 % 1016,1 hPa 0,0 l/m 0 min 0 min 0 W/m 12,9 km/h (3 Bft) 95,74 %
23.06.2023 01:24 16,2 C 15,6 C 12,2 C 99 % 1016,1 hPa 0,0 l/m 0 min 0 min 0 W/m 22,5 km/h (4 Bft) 100,00 %
23.06.2023 01:26 16,2 C 15,6 C 12,2 C 99 % 1016,1 hPa 0,0 l/m 0 min 0 min 0 W/m 29,0 km/h (5 Bft) 100,00 %
23.06.2023 01:28 16,2 C 15,6 C 12,2 C 99 % 1016,2 hPa 0,0 l/m 0 min 0 min 0 W/m 22,5 km/h (4 Bft) 97,92 %
23.06.2023 01:30 16,2 C 15,6 C 12,2 C 99 % 1016,3 hPa 0,0 l/m 0 min 0 min 0 W/m 25,7 km/h (4 Bft) 100,00 %
23.06.2023 01:32 16,2 C 15,6 C 12,2 C 99 % 1016,3 hPa 0,0 l/m 0 min 0 min 0 W/m 19,3 km/h (3 Bft) 100,00 %
23.06.2023 01:34 16,2 C 15,6 C 12,2 C 99 % 1016,5 hPa 0,0 l/m 0 min 0 min 0 W/m 25,7 km/h (4 Bft) 100,00 %
23.06.2023 01:36 16,1 C 15,6 C 12,2 C 99 % 1016,5 hPa 0,0 l/m 0 min 0 min 0 W/m 12,9 km/h (3 Bft) 97,22 %
23.06.2023 01:38 16,1 C 15,6 C 12,2 C 99 % 1016,5 hPa 0,0 l/m 0 min 0 min 0 W/m 25,7 km/h (4 Bft) 98,00 %
23.06.2023 01:40 16,1 C 15,6 C 12,2 C 99 % 1016,6 hPa 0,0 l/m 0 min 0 min 0 W/m 22,5 km/h (4 Bft) 100,00 %
23.06.2023 01:42 16,1 C 15,6 C 12,2 C 99 % 1016,5 hPa 0,0 l/m 0 min 0 min 0 W/m 16,1 km/h (3 Bft) 100,00 %
23.06.2023 01:44 16,1 C 15,6 C 12,2 C 99 % 1016,6 hPa 0,0 l/m 0 min 0 min 0 W/m 16,1 km/h (3 Bft) 100,00 %
23.06.2023 01:46 16,1 C 15,6 C 12,2 C 99 % 1016,6 hPa 0,0 l/m 0 min 0 min 0 W/m 9,7 km/h (2 Bft) 93,62 %
23.06.2023 01:48 16,1 C 15,6 C 12,2 C 99 % 1016,8 hPa 0,0 l/m 0 min 0 min 0 W/m 19,3 km/h (3 Bft) 100,00 %
23.06.2023 01:50 16,1 C 15,6 C 12,2 C 99 % 1016,8 hPa 0,0 l/m 0 min 0 min 0 W/m 12,9 km/h (3 Bft) 100,00 %
23.06.2023 01:52 16,1 C 15,6 C 12,2 C 99 % 1016,8 hPa 0,0 l/m 0 min 0 min 0 W/m 12,9 km/h (3 Bft) 97,83 %
23.06.2023 01:54 16,1 C 15,6 C 12,2 C 99 % 1016,9 hPa 0,0 l/m 0 min 0 min 0 W/m 19,3 km/h (3 Bft) 100,00 %
23.06.2023 01:56 16,1 C 15,6 C 12,2 C 99 % 1017,0 hPa 0,0 l/m 0 min 0 min 0 W/m 16,1 km/h (3 Bft) 97,87 %
23.06.2023 01:58 16,1 C 15,6 C 12,2 C 99 % 1017,1 hPa 0,0 l/m 0 min 0 min 0 W/m 12,9 km/h (3 Bft) 100,00 %
23.06.2023 02:00 16,1 C 15,6 C 12,2 C 99 % 1017,1 hPa 0,0 l/m 0 min 0 min 0 W/m 12,9 km/h (3 Bft) 100,00 %
23.06.2023 02:02 16,1 C 15,6 C 12,2 C 99 % 1017,1 hPa 0,0 l/m 0 min 0 min 0 W/m 29,0 km/h (5 Bft) 97,87 %
23.06.2023 02:04 16,1 C 15,6 C 12,2 C 99 % 1017,1 hPa 0,0 l/m 0 min 0 min 0 W/m 12,9 km/h (3 Bft) 100,00 %
23.06.2023 02:06 16,1 C 15,6 C 12,2 C 99 % 1017,0 hPa 0,0 l/m 0 min 0 min 0 W/m 19,3 km/h (3 Bft) 100,00 %
23.06.2023 02:08 16,0 C 15,6 C 12,2 C 99 % 1017,0 hPa 0,0 l/m 0 min 0 min 0 W/m 12,9 km/h (3 Bft) 96,00 %
23.06.2023 02:10 16,0 C 15,6 C 12,2 C 99 % 1017,0 hPa 0,0 l/m 0 min 0 min 0 W/m 16,1 km/h (3 Bft) 97,87 %
23.06.2023 02:12 16,0 C 15,6 C 12,2 C 99 % 1017,0 hPa 0,0 l/m 0 min 0 min 0 W/m 19,3 km/h (3 Bft) 97,37 %
23.06.2023 02:14 16,0 C 15,6 C 12,2 C 99 % 1017,1 hPa 0,0 l/m 0 min 0 min 0 W/m 9,7 km/h (2 Bft) 96,00 %
23.06.2023 02:16 16,0 C 15,6 C 12,2 C 99 % 1017,2 hPa 0,0 l/m 0 min 0 min 0 W/m 9,7 km/h (2 Bft) 95,92 %
23.06.2023 02:18 16,0 C 15,6 C 12,2 C 99 % 1017,2 hPa 0,0 l/m 0 min 0 min 0 W/m 6,4 km/h (2 Bft) 96,00 %
23.06.2023 02:20 16,0 C 15,6 C 12,2 C 99 % 1017,3 hPa 0,0 l/m 0 min 0 min 0 W/m 19,3 km/h (3 Bft) 97,37 %
23.06.2023 02:22 16,0 C 15,6 C 12,2 C 99 % 1017,3 hPa 0,0 l/m 0 min 0 min 0 W/m 16,1 km/h (3 Bft) 97,87 %
23.06.2023 02:24 16,0 C 15,6 C 12,2 C 99 % 1017,3 hPa 0,0 l/m 0 min 0 min 0 W/m 16,1 km/h (3 Bft) 97,87 %
23.06.2023 02:26 15,9 C 15,6 C 12,2 C 99 % 1017,3 hPa 0,0 l/m 0 min 0 min 0 W/m 19,3 km/h (3 Bft) 95,74 %
23.06.2023 02:28 15,9 C 15,6 C 12,2 C 99 % 1017,2 hPa 0,0 l/m 0 min 0 min 0 W/m 19,3 km/h (3 Bft) 91,49 %
23.06.2023 02:30 15,9 C 15,6 C 12,2 C 99 % 1017,2 hPa 0,0 l/m 0 min 0 min 0 W/m 6,4 km/h (2 Bft) 93,48 %
23.06.2023 02:32 15,9 C 15,6 C 12,2 C 99 % 1017,2 hPa 0,0 l/m 0 min 0 min 0 W/m 6,4 km/h (2 Bft) 95,74 %
23.06.2023 02:34 15,9 C 15,6 C 12,2 C 99 % 1017,3 hPa 0,0 l/m 0 min 0 min 0 W/m 12,9 km/h (3 Bft) 95,74 %
23.06.2023 02:36 15,9 C 15,6 C 12,2 C 99 % 1017,3 hPa 0,0 l/m 0 min 0 min 0 W/m 19,3 km/h (3 Bft) 95,74 %
23.06.2023 02:38 15,9 C 15,6 C 12,2 C 99 % 1017,3 hPa 0,0 l/m 0 min 0 min 0 W/m 12,9 km/h (3 Bft) 95,74 %
23.06.2023 02:40 15,9 C 15,6 C 12,2 C 99 % 1017,4 hPa 0,0 l/m 0 min 0 min 0 W/m 12,9 km/h (3 Bft) 95,74 %
23.06.2023 02:42 15,9 C 15,6 C 12,2 C 99 % 1017,5 hPa 0,0 l/m 0 min 0 min 0 W/m 19,3 km/h (3 Bft) 95,74 %
23.06.2023 02:44 15,9 C 15,6 C 12,2 C 99 % 1017,5 hPa 0,0 l/m 0 min 0 min 0 W/m 9,7 km/h (2 Bft) 93,48 %
23.06.2023 02:46 15,9 C 15,6 C 12,2 C 99 % 1017,5 hPa 0,0 l/m 0 min 0 min 0 W/m 9,7 km/h (2 Bft) 95,74 %
23.06.2023 02:48 15,9 C 15,6 C 12,2 C 99 % 1017,6 hPa 0,0 l/m 0 min 0 min 0 W/m 16,1 km/h (3 Bft) 95,74 %
23.06.2023 02:50 15,8 C 15,6 C 12,2 C 99 % 1017,6 hPa 0,0 l/m 0 min 0 min 0 W/m 12,9 km/h (3 Bft) 91,49 %
23.06.2023 02:52 15,8 C 15,6 C 12,2 C 99 % 1017,7 hPa 0,0 l/m 0 min 0 min 0 W/m 19,3 km/h (3 Bft) 93,62 %
23.06.2023 02:54 15,8 C 15,6 C 12,2 C 99 % 1017,8 hPa 0,0 l/m 0 min 0 min 0 W/m 16,1 km/h (3 Bft) 97,87 %
23.06.2023 02:56 15,8 C 15,6 C 12,2 C 99 % 1017,9 hPa 0,0 l/m 0 min 0 min 0 W/m 9,7 km/h (2 Bft) 95,65 %
23.06.2023 02:58 15,8 C 15,6 C 12,2 C 99 % 1017,9 hPa 0,0 l/m 0 min 0 min 0 W/m 9,7 km/h (2 Bft) 95,74 %
23.06.2023 03:00 15,8 C 15,6 C 12,2 C 99 % 1017,8 hPa 0,0 l/m 0 min 0 min 0 W/m 9,7 km/h (2 Bft) 95,74 %
23.06.2023 03:02 15,8 C 15,6 C 12,2 C 99 % 1017,8 hPa 0,0 l/m 0 min 0 min 0 W/m 19,3 km/h (3 Bft) 100,00 %
23.06.2023 03:04 15,8 C 15,6 C 12,2 C 99 % 1017,8 hPa 0,0 l/m 0 min 0 min 0 W/m 12,9 km/h (3 Bft) 100,00 %
23.06.2023 03:06 15,8 C 15,6 C 12,2 C 99 % 1017,8 hPa 0,0 l/m 0 min 0 min 0 W/m 16,1 km/h (3 Bft) 98,28 %
23.06.2023 03:08 15,8 C 15,6 C 12,2 C 99 % 1017,8 hPa 0,0 l/m 0 min 0 min 0 W/m 16,1 km/h (3 Bft) 100,00 %
23.06.2023 03:10 15,8 C 15,6 C 12,2 C 99 % 1017,8 hPa 0,0 l/m 0 min 0 min 0 W/m 19,3 km/h (3 Bft) 95,65 %
23.06.2023 03:12 15,8 C 15,6 C 12,2 C 99 % 1017,9 hPa 0,0 l/m 0 min 0 min 0 W/m 22,5 km/h (4 Bft) 97,83 %
23.06.2023 03:14 15,8 C 15,6 C 12,2 C 99 % 1018,0 hPa 0,0 l/m 0 min 0 min 0 W/m 16,1 km/h (3 Bft) 97,87 %
23.06.2023 03:16 15,8 C 15,6 C 12,2 C 99 % 1018,0 hPa 0,0 l/m 0 min 0 min 0 W/m 12,9 km/h (3 Bft) 93,62 %
23.06.2023 03:18 15,8 C 15,6 C 12,2 C 99 % 1018,0 hPa 0,0 l/m 0 min 0 min 0 W/m 12,9 km/h (3 Bft) 97,87 %
23.06.2023 03:20 15,8 C 15,6 C 12,2 C 99 % 1018,0 hPa 0,0 l/m 0 min 0 min 0 W/m 9,7 km/h (2 Bft) 97,87 %
23.06.2023 03:22 15,8 C 15,6 C 12,2 C 99 % 1018,1 hPa 0,0 l/m 0 min 0 min 0 W/m 12,9 km/h (3 Bft) 97,83 %
23.06.2023 03:24 15,8 C 15,6 C 12,2 C 98 % 1018,1 hPa 0,0 l/m 0 min 0 min 0 W/m 16,1 km/h (3 Bft) 97,87 %
23.06.2023 03:26 15,8 C 15,6 C 12,2 C 98 % 1018,2 hPa 0,0 l/m 0 min 0 min 0 W/m 12,9 km/h (3 Bft) 97,87 %
23.06.2023 03:28 15,8 C 15,6 C 12,2 C 98 % 1018,3 hPa 0,0 l/m 0 min 0 min 0 W/m 16,1 km/h (3 Bft) 95,74 %
23.06.2023 03:30 15,8 C 15,6 C 12,2 C 98 % 1018,3 hPa 0,0 l/m 0 min 0 min 0 W/m 16,1 km/h (3 Bft) 97,87 %
23.06.2023 03:32 15,8 C 15,6 C 12,2 C 98 % 1018,4 hPa 0,0 l/m 0 min 0 min 0 W/m 12,9 km/h (3 Bft) 97,87 %
23.06.2023 03:34 15,8 C 15,6 C 12,2 C 98 % 1018,3 hPa 0,0 l/m 0 min 0 min 0 W/m 16,1 km/h (3 Bft) 97,87 %
23.06.2023 03:36 15,8 C 15,6 C 12,2 C 98 % 1018,4 hPa 0,0 l/m 0 min 0 min 0 W/m 9,7 km/h (2 Bft) 97,83 %
23.06.2023 03:38 15,7 C 15,6 C 12,2 C 98 % 1018,4 hPa 0,0 l/m 0 min 0 min 0 W/m 9,7 km/h (2 Bft) 97,87 %
23.06.2023 03:40 15,7 C 15,6 C 12,2 C 98 % 1018,4 hPa 0,0 l/m 0 min 0 min 0 W/m 9,7 km/h (2 Bft) 97,87 %
23.06.2023 03:42 15,8 C 15,6 C 12,2 C 98 % 1018,5 hPa 0,0 l/m 0 min 0 min 0 W/m 6,4 km/h (2 Bft) 97,87 %
23.06.2023 03:44 15,8 C 15,6 C 12,2 C 98 % 1018,5 hPa 0,0 l/m 0 min 0 min 0 W/m 12,9 km/h (3 Bft) 97,87 %
23.06.2023 03:46 15,8 C 15,6 C 12,2 C 98 % 1018,5 hPa 0,0 l/m 0 min 0 min 0 W/m 9,7 km/h (2 Bft) 95,74 %
23.06.2023 03:48 15,8 C 15,6 C 12,2 C 98 % 1018,5 hPa 0,0 l/m 0 min 0 min 0 W/m 12,9 km/h (3 Bft) 97,83 %
23.06.2023 03:50 15,7 C 15,6 C 12,2 C 98 % 1018,5 hPa 0,0 l/m 0 min 0 min 0 W/m 12,9 km/h (3 Bft) 97,87 %
23.06.2023 03:52 15,8 C 15,6 C 12,2 C 98 % 1018,6 hPa 0,0 l/m 0 min 0 min 0 W/m 9,7 km/h (2 Bft) 100,00 %
23.06.2023 03:54 15,8 C 15,6 C 12,2 C 98 % 1018,6 hPa 0,0 l/m 0 min 0 min 0 W/m 12,9 km/h (3 Bft) 97,87 %
23.06.2023 03:56 15,8 C 15,6 C 12,2 C 98 % 1018,7 hPa 0,0 l/m 0 min 0 min 0 W/m 9,7 km/h (2 Bft) 97,87 %
23.06.2023 03:58 15,8 C 15,6 C 12,2 C 98 % 1018,7 hPa 0,0 l/m 0 min 0 min 0 W/m 12,9 km/h (3 Bft) 100,00 %
23.06.2023 04:00 15,8 C 15,6 C 12,2 C 98 % 1018,7 hPa 0,0 l/m 0 min 0 min 0 W/m 12,9 km/h (3 Bft) 97,83 %
23.06.2023 04:02 15,8 C 15,6 C 12,2 C 98 % 1018,8 hPa 0,0 l/m 0 min 0 min 0 W/m 12,9 km/h (3 Bft) 96,67 %
23.06.2023 04:04 15,8 C 15,6 C 12,2 C 98 % 1018,8 hPa 0,0 l/m 0 min 0 min 0 W/m 16,1 km/h (3 Bft) 97,87 %
23.06.2023 04:06 15,8 C 15,6 C 12,2 C 98 % 1018,8 hPa 0,0 l/m 0 min 0 min 0 W/m 9,7 km/h (2 Bft) 100,00 %
23.06.2023 04:08 15,8 C 15,6 C 12,2 C 98 % 1018,8 hPa 0,0 l/m 0 min 0 min 0 W/m 6,4 km/h (2 Bft) 100,00 %
23.06.2023 04:10 15,8 C 15,6 C 12,2 C 98 % 1018,9 hPa 0,0 l/m 0 min 0 min 0 W/m 9,7 km/h (2 Bft) 100,00 %
23.06.2023 04:12 15,8 C 15,6 C 12,2 C 98 % 1018,9 hPa 0,0 l/m 0 min 0 min 0 W/m 6,4 km/h (2 Bft) 100,00 %
23.06.2023 04:14 15,8 C 15,6 C 12,2 C 98 % 1018,9 hPa 0,0 l/m 0 min 0 min 0 W/m 12,9 km/h (3 Bft) 97,87 %
23.06.2023 04:16 15,8 C 15,6 C 12,2 C 98 % 1018,9 hPa 0,0 l/m 0 min 0 min 0 W/m 12,9 km/h (3 Bft) 97,87 %
23.06.2023 04:18 15,8 C 15,6 C 12,2 C 98 % 1018,9 hPa 0,0 l/m 0 min 0 min 0 W/m 0,0 km/h (0 Bft) 97,87 %
23.06.2023 04:20 15,9 C 15,6 C 12,2 C 98 % 1018,9 hPa 0,0 l/m 0 min 0 min 0 W/m 9,7 km/h (2 Bft) 97,87 %
23.06.2023 04:22 15,9 C 15,6 C 12,2 C 98 % 1018,9 hPa 0,0 l/m 0 min 0 min 0 W/m 12,9 km/h (3 Bft) 97,87 %
23.06.2023 04:24 15,9 C 15,6 C 12,2 C 98 % 1018,9 hPa 0,0 l/m 0 min 0 min 0 W/m 6,4 km/h (2 Bft) 97,83 %
23.06.2023 04:26 15,9 C 15,6 C 12,2 C 98 % 1018,9 hPa 0,0 l/m 0 min 0 min 0 W/m 6,4 km/h (2 Bft) 97,87 %
23.06.2023 04:28 15,9 C 15,6 C 12,2 C 98 % 1018,9 hPa 0,0 l/m 0 min 0 min 0 W/m 6,4 km/h (2 Bft) 97,87 %
23.06.2023 04:30 15,9 C 15,6 C 12,2 C 98 % 1019,0 hPa 0,0 l/m 0 min 0 min 0 W/m 12,9 km/h (3 Bft) 97,87 %
23.06.2023 04:32 15,9 C 15,6 C 12,2 C 98 % 1019,0 hPa 0,0 l/m 0 min 0 min 0 W/m 12,9 km/h (3 Bft) 97,87 %
23.06.2023 04:34 15,9 C 15,6 C 12,2 C 98 % 1019,0 hPa 0,0 l/m 0 min 0 min 0 W/m 9,7 km/h (2 Bft) 97,87 %
23.06.2023 04:36 15,9 C 15,6 C 12,2 C 98 % 1019,1 hPa 0,0 l/m 0 min 0 min 0 W/m 9,7 km/h (2 Bft) 97,87 %
23.06.2023 04:38 15,9 C 15,6 C 12,2 C 98 % 1019,2 hPa 0,0 l/m 0 min 0 min 0 W/m 6,4 km/h (2 Bft) 95,65 %
23.06.2023 04:40 15,8 C 15,6 C 12,2 C 98 % 1019,2 hPa 0,0 l/m 0 min 0 min 0 W/m 9,7 km/h (2 Bft) 95,74 %
23.06.2023 04:42 15,8 C 15,6 C 12,2 C 98 % 1019,2 hPa 0,0 l/m 0 min 0 min 0 W/m 9,7 km/h (2 Bft) 97,87 %
23.06.2023 04:44 15,8 C 15,6 C 12,2 C 98 % 1019,2 hPa 0,0 l/m 0 min 0 min 0 W/m 12,9 km/h (3 Bft) 97,87 %
23.06.2023 04:46 15,8 C 15,6 C 12,2 C 98 % 1019,2 hPa 0,0 l/m 0 min 0 min 0 W/m 6,4 km/h (2 Bft) 97,87 %
23.06.2023 04:48 15,8 C 15,6 C 12,2 C 98 % 1019,2 hPa 0,0 l/m 0 min 0 min 0 W/m 6,4 km/h (2 Bft) 95,74 %
23.06.2023 04:50 15,8 C 15,6 C 12,2 C 98 % 1019,3 hPa 0,0 l/m 0 min 0 min 0 W/m 12,9 km/h (3 Bft) 97,83 %
23.06.2023 04:52 15,8 C 15,6 C 12,2 C 98 % 1019,2 hPa 0,0 l/m 0 min 0 min 0 W/m 6,4 km/h (2 Bft) 93,62 %
23.06.2023 04:54 15,8 C 15,6 C 12,2 C 98 % 1019,3 hPa 0,0 l/m 0 min 0 min 0 W/m 12,9 km/h (3 Bft) 100,00 %
23.06.2023 04:56 15,8 C 15,6 C 12,2 C 98 % 1019,3 hPa 0,0 l/m 0 min 0 min 0 W/m 6,4 km/h (2 Bft) 100,00 %
23.06.2023 04:58 15,8 C 15,6 C 12,8 C 98 % 1019,3 hPa 0,0 l/m 0 min 0 min 0 W/m 9,7 km/h (2 Bft) 95,74 %
23.06.2023 05:00 15,8 C 15,6 C 12,2 C 98 % 1019,3 hPa 0,0 l/m 0 min 0 min 0 W/m 9,7 km/h (2 Bft) 97,87 %
23.06.2023 05:02 15,8 C 15,6 C 12,2 C 98 % 1019,3 hPa 0,0 l/m 0 min 0 min 0 W/m 9,7 km/h (2 Bft) 97,83 %
23.06.2023 05:04 15,8 C 15,6 C 12,2 C 98 % 1019,3 hPa 0,0 l/m 0 min 0 min 0 W/m 19,3 km/h (3 Bft) 97,87 %
23.06.2023 05:06 15,8 C 15,0 C 12,2 C 98 % 1019,3 hPa 0,0 l/m 0 min 0 min 0 W/m 9,7 km/h (2 Bft) 95,74 %
23.06.2023 05:08 15,8 C 15,0 C 12,2 C 98 % 1019,4 hPa 0,0 l/m 0 min 0 min 0 W/m 19,3 km/h (3 Bft) 97,87 %
23.06.2023 05:10 15,8 C 15,0 C 12,2 C 97 % 1019,4 hPa 0,0 l/m 0 min 0 min 0 W/m 16,1 km/h (3 Bft) 95,74 %
23.06.2023 05:12 15,8 C 15,0 C 12,2 C 97 % 1019,4 hPa 0,0 l/m 0 min 0 min 0 W/m 12,9 km/h (3 Bft) 97,87 %
23.06.2023 05:14 15,8 C 15,0 C 12,2 C 97 % 1019,4 hPa 0,0 l/m 0 min 0 min 0 W/m 25,7 km/h (4 Bft) 97,83 %
23.06.2023 05:16 15,8 C 15,0 C 12,2 C 98 % 1019,5 hPa 0,0 l/m 0 min 0 min 0 W/m 12,9 km/h (3 Bft) 97,87 %
23.06.2023 05:18 15,8 C 15,0 C 12,2 C 98 % 1019,5 hPa 0,0 l/m 0 min 0 min 0 W/m 6,4 km/h (2 Bft) 98,00 %
23.06.2023 05:20 15,8 C 15,0 C 12,2 C 98 % 1019,5 hPa 0,0 l/m 0 min 0 min 0 W/m 12,9 km/h (3 Bft) 92,00 %
23.06.2023 05:22 15,8 C 15,0 C 12,2 C 98 % 1019,5 hPa 0,0 l/m 0 min 0 min 0 W/m 12,9 km/h (3 Bft) 97,87 %
23.06.2023 05:24 15,8 C 15,0 C 12,2 C 98 % 1019,6 hPa 0,0 l/m 0 min 0 min 0 W/m 6,4 km/h (2 Bft) 97,37 %
23.06.2023 05:26 15,8 C 15,0 C 12,2 C 97 % 1019,7 hPa 0,0 l/m 0 min 0 min 0 W/m 9,7 km/h (2 Bft) 98,00 %
23.06.2023 05:28 15,8 C 15,0 C 12,2 C 97 % 1019,7 hPa 0,0 l/m 0 min 0 min 0 W/m 12,9 km/h (3 Bft) 97,87 %
23.06.2023 05:30 15,8 C 15,0 C 12,2 C 97 % 1019,8 hPa 0,0 l/m 0 min 0 min 0 W/m 12,9 km/h (3 Bft) 97,87 %
23.06.2023 05:32 15,8 C 15,0 C 12,2 C 97 % 1019,8 hPa 0,0 l/m 0 min 0 min 0 W/m 12,9 km/h (3 Bft) 97,87 %
23.06.2023 05:34 15,8 C 15,0 C 12,2 C 97 % 1019,8 hPa 0,0 l/m 0 min 0 min 0 W/m 6,4 km/h (2 Bft) 97,87 %
23.06.2023 05:36 15,8 C 15,0 C 12,2 C 97 % 1019,8 hPa 0,0 l/m 0 min 0 min 0 W/m 12,9 km/h (3 Bft) 95,74 %
23.06.2023 05:38 15,8 C 15,0 C 12,2 C 97 % 1019,8 hPa 0,0 l/m 0 min 0 min 2 W/m 12,9 km/h (3 Bft) 95,74 %
23.06.2023 05:40 15,8 C 15,0 C 12,2 C 97 % 1019,9 hPa 0,0 l/m 0 min 0 min 5 W/m 12,9 km/h (3 Bft) 97,83 %
23.06.2023 05:42 15,8 C 15,0 C 12,2 C 97 % 1019,8 hPa 0,0 l/m 0 min 0 min 5 W/m 9,7 km/h (2 Bft) 100,00 %
23.06.2023 05:44 15,8 C 15,0 C 12,2 C 97 % 1019,9 hPa 0,0 l/m 0 min 0 min 7 W/m 12,9 km/h (3 Bft) 100,00 %
23.06.2023 05:46 15,8 C 15,0 C 12,2 C 97 % 1019,9 hPa 0,0 l/m 0 min 0 min 7 W/m 9,7 km/h (2 Bft) 100,00 %
23.06.2023 05:48 15,8 C 15,0 C 12,2 C 97 % 1019,9 hPa 0,0 l/m 0 min 0 min 8 W/m 12,9 km/h (3 Bft) 100,00 %
23.06.2023 05:50 15,8 C 15,0 C 12,2 C 97 % 1020,0 hPa 0,0 l/m 0 min 0 min 9 W/m 16,1 km/h (3 Bft) 100,00 %
23.06.2023 05:52 15,8 C 15,0 C 12,2 C 97 % 1020,0 hPa 0,0 l/m 0 min 0 min 10 W/m 12,9 km/h (3 Bft) 100,00 %
23.06.2023 05:54 15,7 C 15,0 C 12,2 C 97 % 1020,0 hPa 0,0 l/m 0 min 0 min 11 W/m 6,4 km/h (2 Bft) 100,00 %
23.06.2023 05:56 15,7 C 15,0 C 12,2 C 97 % 1020,1 hPa 0,0 l/m 0 min 0 min 12 W/m 6,4 km/h (2 Bft) 100,00 %
23.06.2023 05:58 15,7 C 15,0 C 12,2 C 97 % 1020,2 hPa 0,0 l/m 0 min 0 min 13 W/m 12,9 km/h (3 Bft) 100,00 %
23.06.2023 06:00 15,7 C 15,0 C 12,2 C 97 % 1020,2 hPa 0,0 l/m 0 min 0 min 14 W/m 6,4 km/h (2 Bft) 97,87 %
23.06.2023 06:02 15,7 C 15,0 C 12,2 C 97 % 1020,3 hPa 0,0 l/m 0 min 0 min 16 W/m 12,9 km/h (3 Bft) 97,87 %
23.06.2023 06:04 15,7 C 15,0 C 12,2 C 97 % 1020,3 hPa 0,0 l/m 0 min 0 min 16 W/m 9,7 km/h (2 Bft) 97,83 %
23.06.2023 06:07 15,7 C 15,0 C 12,2 C 97 % 1020,3 hPa 0,0 l/m 0 min 0 min 18 W/m 9,7 km/h (2 Bft) 100,00 %
23.06.2023 06:08 15,7 C 15,0 C 12,2 C 97 % 1020,3 hPa 0,0 l/m 0 min 0 min 18 W/m 9,7 km/h (2 Bft) 95,65 %
23.06.2023 06:12 15,7 C 15,0 C 12,2 C 97 % 1020,3 hPa 0,0 l/m 0 min 0 min 17 W/m 12,9 km/h (3 Bft) 96,15 %
23.06.2023 06:14 15,7 C 15,0 C 12,2 C 98 % 1020,3 hPa 0,0 l/m 0 min 0 min 18 W/m 9,7 km/h (2 Bft) 91,49 %
23.06.2023 06:16 15,7 C 15,0 C 12,2 C 98 % 1020,3 hPa 0,0 l/m 0 min 0 min 18 W/m 9,7 km/h (2 Bft) 95,74 %
23.06.2023 06:18 15,7 C 15,0 C 12,2 C 98 % 1020,3 hPa 0,0 l/m 0 min 0 min 18 W/m 6,4 km/h (2 Bft) 95,74 %
23.06.2023 06:20 15,7 C 15,0 C 12,2 C 98 % 1020,3 hPa 0,0 l/m 0 min 0 min 19 W/m 12,9 km/h (3 Bft) 95,74 %
23.06.2023 06:22 15,7 C 15,0 C 12,2 C 98 % 1020,2 hPa 0,0 l/m 0 min 0 min 21 W/m 12,9 km/h (3 Bft) 93,48 %
23.06.2023 06:24 15,7 C 15,0 C 12,2 C 98 % 1020,2 hPa 0,0 l/m 0 min 0 min 24 W/m 9,7 km/h (2 Bft) 93,62 %
23.06.2023 06:26 15,7 C 15,0 C 12,2 C 98 % 1020,2 hPa 0,0 l/m 0 min 0 min 23 W/m 9,7 km/h (2 Bft) 95,74 %
23.06.2023 06:28 15,7 C 15,0 C 12,2 C 98 % 1020,3 hPa 0,0 l/m 0 min 0 min 20 W/m 12,9 km/h (3 Bft) 95,74 %
23.06.2023 06:30 15,7 C 15,0 C 12,2 C 98 % 1020,3 hPa 0,0 l/m 0 min 0 min 16 W/m 16,1 km/h (3 Bft) 93,62 %
23.06.2023 06:32 15,7 C 15,0 C 12,2 C 98 % 1020,5 hPa 0,0 l/m 0 min 0 min 18 W/m 12,9 km/h (3 Bft) 93,62 %
23.06.2023 06:34 15,7 C 15,0 C 12,2 C 98 % 1020,5 hPa 0,0 l/m 0 min 0 min 19 W/m 6,4 km/h (2 Bft) 93,62 %
23.06.2023 06:36 15,8 C 15,0 C 12,2 C 98 % 1020,6 hPa 0,0 l/m 0 min 0 min 21 W/m 9,7 km/h (2 Bft) 95,65 %
23.06.2023 06:38 15,8 C 15,0 C 12,2 C 98 % 1020,6 hPa 0,0 l/m 0 min 0 min 21 W/m 12,9 km/h (3 Bft) 93,62 %
23.06.2023 06:40 15,8 C 15,6 C 12,8 C 98 % 1020,6 hPa 0,0 l/m 0 min 0 min 21 W/m 6,4 km/h (2 Bft) 95,74 %
23.06.2023 06:46 15,8 C 15,6 C 12,8 C 98 % 1020,7 hPa 0,0 l/m 0 min 0 min 28 W/m 12,9 km/h (3 Bft) 97,22 %
23.06.2023 06:48 15,8 C 15,6 C 12,8 C 98 % 1020,7 hPa 0,0 l/m 0 min 0 min 28 W/m 9,7 km/h (2 Bft) 97,87 %
23.06.2023 06:50 15,8 C 15,6 C 12,8 C 98 % 1020,8 hPa 0,0 l/m 0 min 0 min 35 W/m 19,3 km/h (3 Bft) 97,87 %
23.06.2023 06:52 15,8 C 15,6 C 12,8 C 98 % 1020,8 hPa 0,0 l/m 0 min 0 min 42 W/m 6,4 km/h (2 Bft) 97,87 %
23.06.2023 06:54 15,8 C 15,6 C 12,8 C 98 % 1020,8 hPa 0,0 l/m 0 min 0 min 46 W/m 9,7 km/h (2 Bft) 95,74 %
23.06.2023 06:56 15,8 C 15,6 C 12,8 C 98 % 1020,8 hPa 0,0 l/m 0 min 0 min 48 W/m 12,9 km/h (3 Bft) 95,74 %
23.06.2023 06:58 15,8 C 15,6 C 12,8 C 98 % 1020,8 hPa 0,0 l/m 0 min 0 min 56 W/m 9,7 km/h (2 Bft) 100,00 %
23.06.2023 07:00 15,8 C 15,6 C 12,8 C 98 % 1020,9 hPa 0,0 l/m 0 min 0 min 57 W/m 3,2 km/h (1 Bft) 100,00 %
23.06.2023 07:02 15,8 C 15,6 C 12,8 C 98 % 1020,9 hPa 0,0 l/m 0 min 0 min 66 W/m 6,4 km/h (2 Bft) 100,00 %
23.06.2023 07:04 15,9 C 15,6 C 12,8 C 98 % 1020,9 hPa 0,0 l/m 0 min 0 min 69 W/m 6,4 km/h (2 Bft) 97,87 %
23.06.2023 07:06 15,9 C 15,6 C 12,8 C 98 % 1021,0 hPa 0,0 l/m 0 min 0 min 66 W/m 6,4 km/h (2 Bft) 100,00 %
23.06.2023 07:08 15,9 C 15,6 C 12,8 C 98 % 1021,1 hPa 0,0 l/m 0 min 0 min 50 W/m 9,7 km/h (2 Bft) 100,00 %
23.06.2023 07:10 15,9 C 15,6 C 12,8 C 98 % 1021,2 hPa 0,0 l/m 0 min 0 min 45 W/m 12,9 km/h (3 Bft) 100,00 %
23.06.2023 07:12 15,9 C 15,6 C 12,8 C 98 % 1021,2 hPa 0,0 l/m 0 min 0 min 56 W/m 12,9 km/h (3 Bft) 97,87 %
23.06.2023 07:14 15,9 C 15,6 C 12,8 C 98 % 1021,1 hPa 0,0 l/m 0 min 0 min 72 W/m 12,9 km/h (3 Bft) 100,00 %
23.06.2023 07:16 15,9 C 15,6 C 12,8 C 98 % 1021,1 hPa 0,0 l/m 0 min 0 min 74 W/m 9,7 km/h (2 Bft) 97,87 %
23.06.2023 07:18 15,9 C 15,6 C 12,8 C 98 % 1021,1 hPa 0,0 l/m 0 min 0 min 79 W/m 6,4 km/h (2 Bft) 95,74 %
23.06.2023 07:20 15,9 C 16,1 C 12,8 C 98 % 1021,1 hPa 0,0 l/m 0 min 0 min 84 W/m 6,4 km/h (2 Bft) 100,00 %
23.06.2023 07:22 16,0 C 16,1 C 13,3 C 98 % 1021,1 hPa 0,0 l/m 0 min 0 min 73 W/m 6,4 km/h (2 Bft) 100,00 %
23.06.2023 07:24 16,0 C 16,1 C 13,3 C 98 % 1021,2 hPa 0,0 l/m 0 min 0 min 71 W/m 16,1 km/h (3 Bft) 100,00 %
23.06.2023 07:26 16,0 C 16,1 C 13,3 C 98 % 1021,2 hPa 0,0 l/m 0 min 0 min 86 W/m 9,7 km/h (2 Bft) 97,87 %
23.06.2023 07:28 16,1 C 16,1 C 13,3 C 98 % 1021,3 hPa 0,0 l/m 0 min 0 min 90 W/m 6,4 km/h (2 Bft) 100,00 %
23.06.2023 07:30 16,1 C 16,1 C 13,3 C 98 % 1021,3 hPa 0,0 l/m 0 min 0 min 92 W/m 6,4 km/h (2 Bft) 100,00 %
23.06.2023 07:32 16,1 C 16,1 C 13,3 C 98 % 1021,3 hPa 0,0 l/m 0 min 0 min 103 W/m 9,7 km/h (2 Bft) 100,00 %
23.06.2023 07:34 16,1 C 16,1 C 13,3 C 98 % 1021,3 hPa 0,0 l/m 0 min 0 min 106 W/m 6,4 km/h (2 Bft) 97,87 %
23.06.2023 07:36 16,1 C 16,1 C 13,3 C 98 % 1021,4 hPa 0,0 l/m 0 min 0 min 115 W/m 12,9 km/h (3 Bft) 100,00 %
23.06.2023 07:38 16,1 C 16,1 C 13,3 C 98 % 1021,4 hPa 0,0 l/m 0 min 0 min 154 W/m 9,7 km/h (2 Bft) 100,00 %
23.06.2023 07:40 16,2 C 16,7 C 13,3 C 98 % 1021,4 hPa 0,0 l/m 2 min 0 min 215 W/m 9,7 km/h (2 Bft) 100,00 %
23.06.2023 07:42 16,2 C 16,7 C 13,3 C 98 % 1021,4 hPa 0,0 l/m 2 min 0 min 171 W/m 19,3 km/h (3 Bft) 100,00 %
23.06.2023 07:44 16,2 C 16,7 C 13,3 C 98 % 1021,4 hPa 0,0 l/m 0 min 0 min 146 W/m 9,7 km/h (2 Bft) 97,87 %
23.06.2023 07:46 16,3 C 16,7 C 13,3 C 98 % 1021,5 hPa 0,0 l/m 0 min 0 min 142 W/m 12,9 km/h (3 Bft) 100,00 %
23.06.2023 07:48 16,3 C 16,7 C 13,9 C 98 % 1021,5 hPa 0,0 l/m 2 min 0 min 177 W/m 16,1 km/h (3 Bft) 97,87 %
23.06.2023 07:50 16,3 C 16,7 C 13,9 C 98 % 1021,5 hPa 0,0 l/m 0 min 0 min 168 W/m 12,9 km/h (3 Bft) 97,87 %
23.06.2023 07:52 16,3 C 16,7 C 13,9 C 98 % 1021,5 hPa 0,0 l/m 0 min 0 min 143 W/m 12,9 km/h (3 Bft) 97,87 %
23.06.2023 07:54 16,3 C 16,7 C 13,9 C 98 % 1021,6 hPa 0,0 l/m 2 min 0 min 190 W/m 12,9 km/h (3 Bft) 97,87 %
23.06.2023 07:56 16,4 C 16,7 C 13,9 C 98 % 1021,5 hPa 0,0 l/m 2 min 0 min 245 W/m 6,4 km/h (2 Bft) 97,83 %
23.06.2023 07:58 16,4 C 16,7 C 13,9 C 98 % 1021,5 hPa 0,0 l/m 2 min 0 min 249 W/m 12,9 km/h (3 Bft) 97,87 %
23.06.2023 08:00 16,4 C 16,7 C 13,9 C 98 % 1021,5 hPa 0,0 l/m 2 min 0 min 199 W/m 9,7 km/h (2 Bft) 97,87 %
23.06.2023 08:02 16,4 C 16,7 C 13,9 C 98 % 1021,5 hPa 0,0 l/m 0 min 0 min 141 W/m 16,1 km/h (3 Bft) 97,87 %
23.06.2023 08:04 16,4 C 16,7 C 13,9 C 98 % 1021,5 hPa 0,0 l/m 2 min 0 min 214 W/m 16,1 km/h (3 Bft) 95,92 %
23.06.2023 08:06 16,5 C 17,2 C 13,9 C 98 % 1021,5 hPa 0,0 l/m 2 min 0 min 262 W/m 6,4 km/h (2 Bft) 95,74 %
23.06.2023 08:08 16,6 C 17,2 C 13,9 C 98 % 1021,5 hPa 0,0 l/m 2 min 0 min 271 W/m 9,7 km/h (2 Bft) 95,74 %
23.06.2023 08:10 16,6 C 17,8 C 13,9 C 97 % 1021,6 hPa 0,0 l/m 2 min 0 min 288 W/m 16,1 km/h (3 Bft) 95,65 %
23.06.2023 08:12 16,7 C 18,3 C 13,9 C 97 % 1021,6 hPa 0,0 l/m 2 min 0 min 284 W/m 16,1 km/h (3 Bft) 95,74 %
23.06.2023 08:14 16,7 C 18,9 C 13,9 C 97 % 1021,7 hPa 0,0 l/m 2 min 0 min 299 W/m 16,1 km/h (3 Bft) 95,74 %
23.06.2023 08:16 16,7 C 18,9 C 13,9 C 97 % 1021,8 hPa 0,0 l/m 2 min 0 min 298 W/m 12,9 km/h (3 Bft) 95,74 %
23.06.2023 08:18 16,8 C 19,4 C 14,4 C 97 % 1021,7 hPa 0,0 l/m 2 min 0 min 306 W/m 9,7 km/h (2 Bft) 93,62 %
23.06.2023 08:20 16,8 C 20,0 C 14,4 C 97 % 1021,8 hPa 0,0 l/m 2 min 0 min 315 W/m 9,7 km/h (2 Bft) 95,74 %
23.06.2023 08:22 17,0 C 20,0 C 14,4 C 97 % 1021,8 hPa 0,0 l/m 2 min 0 min 312 W/m 9,7 km/h (2 Bft) 95,74 %
23.06.2023 08:24 17,1 C 20,0 C 15,0 C 97 % 1021,9 hPa 0,0 l/m 2 min 0 min 314 W/m 9,7 km/h (2 Bft) 95,65 %
23.06.2023 08:26 17,1 C 20,0 C 15,0 C 97 % 1021,9 hPa 0,0 l/m 2 min 0 min 310 W/m 9,7 km/h (2 Bft) 93,62 %
23.06.2023 08:28 17,2 C 20,0 C 15,0 C 97 % 1021,9 hPa 0,0 l/m 2 min 0 min 292 W/m 12,9 km/h (3 Bft) 93,62 %
23.06.2023 08:30 17,3 C 20,6 C 15,6 C 97 % 1021,9 hPa 0,0 l/m 2 min 0 min 313 W/m 9,7 km/h (2 Bft) 93,62 %
23.06.2023 08:32 17,4 C 21,1 C 15,6 C 97 % 1021,9 hPa 0,0 l/m 2 min 0 min 354 W/m 9,7 km/h (2 Bft) 91,49 %
23.06.2023 08:34 17,4 C 21,1 C 15,6 C 96 % 1022,0 hPa 0,0 l/m 2 min 0 min 354 W/m 9,7 km/h (2 Bft) 95,74 %
23.06.2023 08:36 17,6 C 21,7 C 16,1 C 96 % 1022,0 hPa 0,0 l/m 2 min 0 min 358 W/m 6,4 km/h (2 Bft) 93,62 %
23.06.2023 08:38 17,6 C 21,7 C 16,1 C 96 % 1022,0 hPa 0,0 l/m 2 min 0 min 369 W/m 19,3 km/h (3 Bft) 97,83 %
23.06.2023 08:40 17,7 C 21,7 C 16,1 C 96 % 1022,0 hPa 0,0 l/m 2 min 0 min 340 W/m 16,1 km/h (3 Bft) 95,74 %
23.06.2023 08:42 17,8 C 21,7 C 16,1 C 95 % 1022,0 hPa 0,0 l/m 2 min 0 min 386 W/m 12,9 km/h (3 Bft) 95,74 %
23.06.2023 08:44 17,9 C 22,2 C 16,7 C 95 % 1022,0 hPa 0,0 l/m 2 min 0 min 389 W/m 16,1 km/h (3 Bft) 97,87 %
23.06.2023 08:46 17,9 C 22,2 C 16,7 C 95 % 1022,0 hPa 0,0 l/m 2 min 0 min 389 W/m 16,1 km/h (3 Bft) 93,62 %
23.06.2023 08:48 18,1 C 22,8 C 16,7 C 95 % 1022,0 hPa 0,0 l/m 2 min 0 min 391 W/m 16,1 km/h (3 Bft) 97,87 %
23.06.2023 08:50 18,1 C 22,8 C 16,7 C 94 % 1022,0 hPa 0,0 l/m 2 min 0 min 396 W/m 19,3 km/h (3 Bft) 95,74 %
23.06.2023 08:52 18,2 C 23,3 C 17,2 C 94 % 1022,1 hPa 0,0 l/m 2 min 0 min 400 W/m 9,7 km/h (2 Bft) 95,65 %
23.06.2023 08:54 18,3 C 23,3 C 17,2 C 94 % 1022,1 hPa 0,0 l/m 2 min 0 min 404 W/m 16,1 km/h (3 Bft) 95,74 %
23.06.2023 08:56 18,4 C 23,3 C 17,2 C 93 % 1022,1 hPa 0,0 l/m 2 min 0 min 408 W/m 12,9 km/h (3 Bft) 93,62 %
23.06.2023 08:58 18,5 C 22,8 C 17,2 C 93 % 1022,2 hPa 0,0 l/m 2 min 0 min 405 W/m 16,1 km/h (3 Bft) 93,62 %
23.06.2023 09:00 18,6 C 22,8 C 17,2 C 92 % 1022,2 hPa 0,0 l/m 2 min 0 min 415 W/m 9,7 km/h (2 Bft) 93,62 %
23.06.2023 09:02 18,7 C 22,8 C 17,2 C 92 % 1022,2 hPa 0,0 l/m 2 min 0 min 420 W/m 16,1 km/h (3 Bft) 97,87 %
23.06.2023 09:04 18,7 C 23,3 C 17,2 C 91 % 1022,2 hPa 0,0 l/m 2 min 0 min 427 W/m 9,7 km/h (2 Bft) 94,59 %
23.06.2023 09:06 18,8 C 23,3 C 17,2 C 91 % 1022,3 hPa 0,0 l/m 2 min 0 min 442 W/m 12,9 km/h (3 Bft) 98,28 %
23.06.2023 09:08 18,9 C 23,3 C 17,8 C 91 % 1022,3 hPa 0,0 l/m 2 min 0 min 453 W/m 16,1 km/h (3 Bft) 97,22 %
23.06.2023 09:10 18,9 C 23,3 C 17,2 C 90 % 1022,3 hPa 0,0 l/m 2 min 0 min 458 W/m 12,9 km/h (3 Bft) 97,83 %
23.06.2023 09:12 19,1 C 23,3 C 17,8 C 90 % 1022,3 hPa 0,0 l/m 2 min 0 min 460 W/m 9,7 km/h (2 Bft) 97,87 %
23.06.2023 09:14 19,2 C 23,3 C 17,8 C 90 % 1022,4 hPa 0,0 l/m 2 min 0 min 469 W/m 9,7 km/h (2 Bft) 97,87 %
23.06.2023 09:16 19,3 C 23,9 C 17,8 C 90 % 1022,4 hPa 0,0 l/m 2 min 0 min 478 W/m 12,9 km/h (3 Bft) 95,74 %
23.06.2023 09:18 19,4 C 23,9 C 17,8 C 90 % 1022,4 hPa 0,0 l/m 2 min 0 min 480 W/m 16,1 km/h (3 Bft) 97,87 %
23.06.2023 09:20 19,6 C 24,4 C 17,8 C 89 % 1022,3 hPa 0,0 l/m 2 min 0 min 480 W/m 12,9 km/h (3 Bft) 97,87 %
23.06.2023 09:22 19,7 C 24,4 C 18,3 C 89 % 1022,4 hPa 0,0 l/m 2 min 0 min 476 W/m 12,9 km/h (3 Bft) 97,87 %
23.06.2023 09:24 19,8 C 24,4 C 18,3 C 88 % 1022,4 hPa 0,0 l/m 2 min 0 min 486 W/m 6,4 km/h (2 Bft) 95,65 %
23.06.2023 09:26 19,8 C 25,0 C 18,9 C 88 % 1022,4 hPa 0,0 l/m 2 min 0 min 509 W/m 9,7 km/h (2 Bft) 97,87 %
23.06.2023 09:28 19,8 C 24,4 C 18,9 C 87 % 1022,4 hPa 0,0 l/m 2 min 0 min 513 W/m 12,9 km/h (3 Bft) 95,74 %
23.06.2023 09:30 19,9 C 24,4 C 18,3 C 87 % 1022,4 hPa 0,0 l/m 2 min 0 min 515 W/m 12,9 km/h (3 Bft) 97,87 %
23.06.2023 09:32 20,0 C 24,4 C 18,9 C 87 % 1022,5 hPa 0,0 l/m 2 min 0 min 518 W/m 16,1 km/h (3 Bft) 97,87 %
23.06.2023 09:34 20,1 C 24,4 C 18,9 C 87 % 1022,5 hPa 0,0 l/m 2 min 0 min 530 W/m 12,9 km/h (3 Bft) 95,74 %
23.06.2023 09:36 20,2 C 24,4 C 18,9 C 87 % 1022,6 hPa 0,0 l/m 2 min 0 min 536 W/m 6,4 km/h (2 Bft) 100,00 %
23.06.2023 09:38 20,2 C 24,4 C 18,9 C 86 % 1022,6 hPa 0,0 l/m 2 min 0 min 548 W/m 12,9 km/h (3 Bft) 100,00 %
23.06.2023 09:40 20,2 C 24,4 C 19,4 C 86 % 1022,6 hPa 0,0 l/m 2 min 0 min 536 W/m 12,9 km/h (3 Bft) 100,00 %
23.06.2023 09:42 20,3 C 23,9 C 19,4 C 86 % 1022,7 hPa 0,0 l/m 2 min 0 min 534 W/m 16,1 km/h (3 Bft) 100,00 %
23.06.2023 09:44 20,3 C 24,4 C 18,9 C 85 % 1022,7 hPa 0,0 l/m 2 min 0 min 541 W/m 9,7 km/h (2 Bft) 100,00 %
23.06.2023 09:46 20,4 C 24,4 C 19,4 C 85 % 1022,7 hPa 0,0 l/m 2 min 0 min 565 W/m 16,1 km/h (3 Bft) 95,74 %
23.06.2023 09:48 20,4 C 24,4 C 19,4 C 85 % 1022,7 hPa 0,0 l/m 2 min 0 min 569 W/m 12,9 km/h (3 Bft) 100,00 %
23.06.2023 09:50 20,5 C 24,4 C 19,4 C 85 % 1022,7 hPa 0,0 l/m 2 min 0 min 572 W/m 12,9 km/h (3 Bft) 100,00 %
23.06.2023 09:52 20,6 C 25,0 C 20,0 C 85 % 1022,7 hPa 0,0 l/m 2 min 0 min 575 W/m 6,4 km/h (2 Bft) 100,00 %
23.06.2023 09:54 20,7 C 25,0 C 20,0 C 85 % 1022,7 hPa 0,0 l/m 2 min 0 min 580 W/m 12,9 km/h (3 Bft) 97,83 %
23.06.2023 09:56 20,7 C 25,0 C 20,0 C 85 % 1022,7 hPa 0,0 l/m 2 min 0 min 582 W/m 12,9 km/h (3 Bft) 100,00 %
23.06.2023 09:58 20,8 C 25,0 C 20,6 C 85 % 1022,7 hPa 0,0 l/m 2 min 0 min 580 W/m 9,7 km/h (2 Bft) 100,00 %
23.06.2023 10:00 20,8 C 24,4 C 20,6 C 84 % 1022,7 hPa 0,0 l/m 2 min 0 min 600 W/m 19,3 km/h (3 Bft) 100,00 %
23.06.2023 10:02 20,9 C 23,9 C 20,0 C 83 % 1022,7 hPa 0,0 l/m 2 min 0 min 608 W/m 9,7 km/h (2 Bft) 100,00 %
23.06.2023 10:04 20,9 C 24,4 C 20,6 C 83 % 1022,6 hPa 0,0 l/m 2 min 0 min 622 W/m 6,4 km/h (2 Bft) 100,00 %
23.06.2023 10:06 21,1 C 24,4 C 20,6 C 84 % 1022,7 hPa 0,0 l/m 2 min 0 min 630 W/m 12,9 km/h (3 Bft) 98,33 %
23.06.2023 10:08 21,1 C 23,9 C 20,6 C 83 % 1022,7 hPa 0,0 l/m 2 min 0 min 631 W/m 9,7 km/h (2 Bft) 100,00 %
23.06.2023 10:10 21,2 C 24,4 C 20,6 C 83 % 1022,7 hPa 0,0 l/m 2 min 0 min 633 W/m 9,7 km/h (2 Bft) 95,74 %
23.06.2023 10:12 21,2 C 24,4 C 21,1 C 83 % 1022,7 hPa 0,0 l/m 2 min 0 min 629 W/m 9,7 km/h (2 Bft) 97,87 %
23.06.2023 10:14 21,3 C 24,4 C 21,1 C 82 % 1022,7 hPa 0,0 l/m 2 min 0 min 640 W/m 16,1 km/h (3 Bft) 95,74 %
23.06.2023 10:16 21,3 C 23,9 C 21,1 C 81 % 1022,7 hPa 0,0 l/m 2 min 0 min 648 W/m 12,9 km/h (3 Bft) 97,87 %
23.06.2023 10:18 21,3 C 23,9 C 21,1 C 81 % 1022,9 hPa 0,0 l/m 2 min 0 min 652 W/m 12,9 km/h (3 Bft) 97,87 %
23.06.2023 10:20 21,3 C 23,9 C 21,1 C 82 % 1022,9 hPa 0,0 l/m 2 min 0 min 659 W/m 9,7 km/h (2 Bft) 97,83 %
23.06.2023 10:22 21,4 C 23,9 C 21,7 C 81 % 1022,9 hPa 0,0 l/m 2 min 0 min 659 W/m 9,7 km/h (2 Bft) 97,87 %
23.06.2023 10:24 21,4 C 23,9 C 21,7 C 81 % 1022,9 hPa 0,0 l/m 2 min 0 min 665 W/m 9,7 km/h (2 Bft) 97,87 %
23.06.2023 10:26 21,5 C 24,4 C 21,7 C 81 % 1022,8 hPa 0,0 l/m 2 min 0 min 664 W/m 12,9 km/h (3 Bft) 97,87 %
23.06.2023 10:28 21,5 C 23,9 C 22,2 C 81 % 1022,9 hPa 0,0 l/m 2 min 0 min 665 W/m 9,7 km/h (2 Bft) 97,87 %
23.06.2023 10:30 21,5 C 23,9 C 22,2 C 80 % 1022,9 hPa 0,0 l/m 2 min 0 min 663 W/m 12,9 km/h (3 Bft) 97,87 %
23.06.2023 10:32 21,4 C 23,3 C 21,7 C 81 % 1022,9 hPa 0,0 l/m 2 min 0 min 674 W/m 9,7 km/h (2 Bft) 97,87 %
23.06.2023 10:34 21,4 C 23,9 C 22,2 C 81 % 1023,0 hPa 0,0 l/m 2 min 0 min 681 W/m 3,2 km/h (1 Bft) 97,83 %
23.06.2023 10:36 21,6 C 23,9 C 22,8 C 82 % 1023,0 hPa 0,0 l/m 2 min 0 min 678 W/m 12,9 km/h (3 Bft) 97,87 %
23.06.2023 10:38 21,6 C 23,9 C 22,8 C 81 % 1023,0 hPa 0,0 l/m 2 min 0 min 687 W/m 9,7 km/h (2 Bft) 95,74 %
23.06.2023 10:40 21,7 C 23,9 C 22,8 C 81 % 1023,1 hPa 0,0 l/m 2 min 0 min 702 W/m 6,4 km/h (2 Bft) 97,87 %
23.06.2023 10:42 21,7 C 23,3 C 22,8 C 80 % 1023,1 hPa 0,0 l/m 2 min 0 min 691 W/m 9,7 km/h (2 Bft) 97,87 %
23.06.2023 10:44 21,7 C 23,3 C 22,8 C 80 % 1023,1 hPa 0,0 l/m 2 min 0 min 690 W/m 16,1 km/h (3 Bft) 100,00 %
23.06.2023 10:46 21,7 C 23,3 C 22,8 C 79 % 1023,1 hPa 0,0 l/m 2 min 0 min 716 W/m 16,1 km/h (3 Bft) 100,00 %
23.06.2023 10:48 21,7 C 23,9 C 22,2 C 78 % 1023,1 hPa 0,0 l/m 2 min 0 min 719 W/m 12,9 km/h (3 Bft) 100,00 %
23.06.2023 10:50 21,8 C 23,9 C 22,8 C 78 % 1023,1 hPa 0,0 l/m 2 min 0 min 719 W/m 16,1 km/h (3 Bft) 100,00 %
23.06.2023 10:52 21,9 C 24,4 C 22,8 C 78 % 1023,1 hPa 0,0 l/m 2 min 0 min 718 W/m 12,9 km/h (3 Bft) 100,00 %
23.06.2023 10:54 21,9 C 24,4 C 22,8 C 78 % 1023,2 hPa 0,0 l/m 2 min 0 min 728 W/m 16,1 km/h (3 Bft) 100,00 %
23.06.2023 10:56 22,0 C 24,4 C 22,8 C 77 % 1023,1 hPa 0,0 l/m 2 min 0 min 736 W/m 12,9 km/h (3 Bft) 100,00 %
23.06.2023 10:58 22,0 C 24,4 C 22,8 C 78 % 1023,2 hPa 0,0 l/m 2 min 0 min 741 W/m 12,9 km/h (3 Bft) 100,00 %
23.06.2023 11:00 22,1 C 24,4 C 22,8 C 79 % 1023,2 hPa 0,0 l/m 2 min 0 min 740 W/m 9,7 km/h (2 Bft) 100,00 %
23.06.2023 11:02 22,1 C 23,9 C 22,2 C 78 % 1023,3 hPa 0,0 l/m 2 min 0 min 744 W/m 16,1 km/h (3 Bft) 100,00 %
23.06.2023 11:04 22,1 C 23,9 C 21,7 C 78 % 1023,2 hPa 0,0 l/m 2 min 0 min 765 W/m 9,7 km/h (2 Bft) 100,00 %
23.06.2023 11:06 22,1 C 23,9 C 21,1 C 78 % 1023,3 hPa 0,0 l/m 2 min 0 min 775 W/m 9,7 km/h (2 Bft) 100,00 %
23.06.2023 11:08 22,1 C 25,0 C 20,6 C 78 % 1023,3 hPa 0,0 l/m 2 min 0 min 781 W/m 12,9 km/h (3 Bft) 100,00 %
23.06.2023 11:10 22,3 C 25,6 C 20,6 C 78 % 1023,3 hPa 0,0 l/m 2 min 0 min 793 W/m 12,9 km/h (3 Bft) 100,00 %
23.06.2023 11:12 22,4 C 26,1 C 20,6 C 78 % 1023,3 hPa 0,0 l/m 2 min 0 min 818 W/m 12,9 km/h (3 Bft) 100,00 %
23.06.2023 11:14 22,6 C 26,1 C 20,0 C 77 % 1023,3 hPa 0,0 l/m 2 min 0 min 850 W/m 12,9 km/h (3 Bft) 100,00 %
23.06.2023 11:16 22,7 C 25,6 C 20,6 C 77 % 1023,3 hPa 0,0 l/m 2 min 0 min 846 W/m 12,9 km/h (3 Bft) 97,83 %
23.06.2023 11:18 22,8 C 25,6 C 21,1 C 76 % 1023,4 hPa 0,0 l/m 2 min 0 min 834 W/m 9,7 km/h (2 Bft) 100,00 %
23.06.2023 11:20 22,8 C 26,1 C 21,1 C 76 % 1023,4 hPa 0,0 l/m 2 min 0 min 820 W/m 12,9 km/h (3 Bft) 100,00 %
23.06.2023 11:22 22,9 C 26,1 C 21,1 C 76 % 1023,4 hPa 0,0 l/m 2 min 0 min 842 W/m 6,4 km/h (2 Bft) 100,00 %
23.06.2023 11:24 23,0 C 26,1 C 21,1 C 75 % 1023,4 hPa 0,0 l/m 2 min 0 min 822 W/m 16,1 km/h (3 Bft) 100,00 %
23.06.2023 11:26 23,1 C 26,1 C 20,6 C 76 % 1023,4 hPa 0,0 l/m 2 min 0 min 817 W/m 12,9 km/h (3 Bft) 100,00 %
23.06.2023 11:28 23,2 C 26,1 C 21,1 C 75 % 1023,4 hPa 0,0 l/m 2 min 0 min 815 W/m 16,1 km/h (3 Bft) 97,87 %
23.06.2023 11:30 23,3 C 26,1 C 22,2 C 75 % 1023,4 hPa 0,0 l/m 2 min 0 min 815 W/m 6,4 km/h (2 Bft) 97,83 %
23.06.2023 11:32 23,3 C 26,7 C 22,8 C 75 % 1023,5 hPa 0,0 l/m 2 min 0 min 825 W/m 6,4 km/h (2 Bft) 95,74 %
23.06.2023 11:34 23,4 C 27,2 C 23,3 C 74 % 1023,4 hPa 0,0 l/m 2 min 0 min 859 W/m 9,7 km/h (2 Bft) 97,87 %
23.06.2023 11:36 23,6 C 27,2 C 22,2 C 73 % 1023,4 hPa 0,0 l/m 2 min 0 min 869 W/m 12,9 km/h (3 Bft) 95,74 %
23.06.2023 11:38 23,6 C 27,2 C 21,7 C 72 % 1023,5 hPa 0,0 l/m 2 min 0 min 875 W/m 22,5 km/h (4 Bft) 95,74 %
23.06.2023 11:40 23,7 C 27,2 C 22,2 C 70 % 1023,5 hPa 0,0 l/m 2 min 0 min 897 W/m 12,9 km/h (3 Bft) 97,87 %
23.06.2023 11:42 23,8 C 27,2 C 22,8 C 70 % 1023,5 hPa 0,0 l/m 2 min 0 min 902 W/m 19,3 km/h (3 Bft) 97,87 %
23.06.2023 11:44 23,8 C 26,1 C 22,2 C 71 % 1023,6 hPa 0,0 l/m 2 min 0 min 895 W/m 16,1 km/h (3 Bft) 97,83 %
23.06.2023 11:46 23,7 C 26,7 C 22,8 C 70 % 1023,6 hPa 0,0 l/m 2 min 0 min 883 W/m 12,9 km/h (3 Bft) 97,87 %
23.06.2023 11:48 23,8 C 27,2 C 24,4 C 70 % 1023,6 hPa 0,0 l/m 2 min 0 min 867 W/m 12,9 km/h (3 Bft) 97,87 %
23.06.2023 11:50 23,7 C 26,7 C 25,0 C 68 % 1023,7 hPa 0,0 l/m 2 min 0 min 868 W/m 16,1 km/h (3 Bft) 95,74 %
23.06.2023 11:52 23,7 C 27,2 C 25,0 C 69 % 1023,7 hPa 0,0 l/m 2 min 0 min 868 W/m 16,1 km/h (3 Bft) 97,87 %
23.06.2023 11:54 23,8 C 27,2 C 25,0 C 69 % 1023,7 hPa 0,0 l/m 2 min 0 min 853 W/m 6,4 km/h (2 Bft) 95,74 %
23.06.2023 11:56 23,8 C 27,2 C 25,0 C 69 % 1023,7 hPa 0,0 l/m 2 min 0 min 854 W/m 16,1 km/h (3 Bft) 97,87 %
23.06.2023 11:58 23,9 C 27,8 C 25,6 C 65 % 1023,7 hPa 0,0 l/m 2 min 0 min 863 W/m 22,5 km/h (4 Bft) 97,87 %
23.06.2023 12:00 23,9 C 28,3 C 26,1 C 65 % 1023,7 hPa 0,0 l/m 2 min 0 min 857 W/m 19,3 km/h (3 Bft) 97,83 %
23.06.2023 12:02 24,1 C 27,8 C 25,0 C 65 % 1023,7 hPa 0,0 l/m 2 min 0 min 859 W/m 16,1 km/h (3 Bft) 95,74 %
23.06.2023 12:04 24,1 C 28,3 C 25,6 C 65 % 1023,7 hPa 0,0 l/m 2 min 0 min 863 W/m 6,4 km/h (2 Bft) 95,24 %
23.06.2023 12:08 24,2 C 28,3 C 26,1 C 66 % 1023,8 hPa 0,0 l/m 4 min 0 min 840 W/m 19,3 km/h (3 Bft) 95,10 %
23.06.2023 12:10 24,3 C 28,3 C 26,7 C 66 % 1023,8 hPa 0,0 l/m 2 min 0 min 867 W/m 16,1 km/h (3 Bft) 97,87 %
23.06.2023 12:12 24,3 C 27,8 C 26,7 C 66 % 1023,8 hPa 0,0 l/m 2 min 0 min 905 W/m 6,4 km/h (2 Bft) 95,65 %
23.06.2023 12:14 24,3 C 26,7 C 25,6 C 66 % 1023,7 hPa 0,0 l/m 2 min 0 min 923 W/m 16,1 km/h (3 Bft) 95,74 %
23.06.2023 12:16 24,2 C 27,8 C 26,7 C 66 % 1023,8 hPa 0,0 l/m 2 min 0 min 891 W/m 16,1 km/h (3 Bft) 95,74 %
23.06.2023 12:18 24,2 C 27,8 C 27,2 C 64 % 1023,8 hPa 0,0 l/m 2 min 0 min 855 W/m 12,9 km/h (3 Bft) 93,62 %
23.06.2023 12:20 24,3 C 27,8 C 27,2 C 64 % 1023,9 hPa 0,0 l/m 2 min 0 min 870 W/m 19,3 km/h (3 Bft) 93,62 %
23.06.2023 12:22 24,3 C 27,8 C 27,2 C 63 % 1023,9 hPa 0,0 l/m 2 min 0 min 876 W/m 19,3 km/h (3 Bft) 95,74 %
23.06.2023 12:24 24,4 C 28,3 C 28,3 C 63 % 1023,9 hPa 0,0 l/m 2 min 0 min 886 W/m 9,7 km/h (2 Bft) 95,74 %
23.06.2023 12:26 24,5 C 28,3 C 28,3 C 64 % 1023,9 hPa 0,0 l/m 2 min 0 min 885 W/m 16,1 km/h (3 Bft) 93,48 %
23.06.2023 12:28 24,6 C 28,3 C 27,8 C 61 % 1023,9 hPa 0,0 l/m 2 min 0 min 881 W/m 22,5 km/h (4 Bft) 95,74 %
23.06.2023 12:30 24,6 C 28,9 C 28,3 C 62 % 1023,8 hPa 0,0 l/m 2 min 0 min 890 W/m 16,1 km/h (3 Bft) 94,74 %
23.06.2023 12:32 24,7 C 28,9 C 27,8 C 60 % 1023,8 hPa 0,0 l/m 2 min 0 min 890 W/m 12,9 km/h (3 Bft) 95,74 %
23.06.2023 12:34 24,8 C 29,4 C 28,9 C 60 % 1023,7 hPa 0,0 l/m 2 min 0 min 894 W/m 6,4 km/h (2 Bft) 95,83 %
23.06.2023 12:36 24,9 C 29,4 C 29,4 C 60 % 1023,7 hPa 0,0 l/m 2 min 0 min 894 W/m 9,7 km/h (2 Bft) 93,62 %
23.06.2023 12:38 25,0 C 29,4 C 30,0 C 61 % 1023,7 hPa 0,0 l/m 2 min 0 min 897 W/m 9,7 km/h (2 Bft) 95,74 %
23.06.2023 12:40 25,1 C 29,4 C 28,9 C 60 % 1023,8 hPa 0,0 l/m 2 min 0 min 900 W/m 12,9 km/h (3 Bft) 95,74 %
23.06.2023 12:42 25,2 C 29,4 C 28,9 C 60 % 1023,8 hPa 0,0 l/m 2 min 0 min 900 W/m 12,9 km/h (3 Bft) 95,74 %
23.06.2023 12:44 25,2 C 29,4 C 28,9 C 58 % 1023,8 hPa 0,0 l/m 2 min 0 min 908 W/m 9,7 km/h (2 Bft) 97,83 %
23.06.2023 12:46 25,2 C 29,4 C 30,0 C 60 % 1023,7 hPa 0,0 l/m 2 min 0 min 910 W/m 6,4 km/h (2 Bft) 97,87 %
23.06.2023 12:48 25,2 C 29,4 C 30,0 C 60 % 1023,7 hPa 0,0 l/m 2 min 0 min 911 W/m 19,3 km/h (3 Bft) 95,74 %
23.06.2023 12:50 25,2 C 29,4 C 29,4 C 58 % 1023,7 hPa 0,0 l/m 2 min 0 min 908 W/m 16,1 km/h (3 Bft) 97,87 %
23.06.2023 12:52 25,2 C 29,4 C 28,9 C 59 % 1023,8 hPa 0,0 l/m 2 min 0 min 911 W/m 12,9 km/h (3 Bft) 97,87 %
23.06.2023 12:54 25,2 C 28,9 C 28,9 C 59 % 1023,8 hPa 0,0 l/m 2 min 0 min 912 W/m 16,1 km/h (3 Bft) 93,62 %
23.06.2023 12:56 25,2 C 28,9 C 29,4 C 59 % 1023,8 hPa 0,0 l/m 2 min 0 min 915 W/m 12,9 km/h (3 Bft) 95,74 %
23.06.2023 12:58 25,2 C 28,3 C 28,9 C 59 % 1023,8 hPa 0,0 l/m 2 min 0 min 911 W/m 16,1 km/h (3 Bft) 97,83 %
23.06.2023 13:00 25,1 C 28,9 C 30,0 C 60 % 1023,8 hPa 0,0 l/m 2 min 0 min 911 W/m 6,4 km/h (2 Bft) 97,87 %
23.06.2023 13:02 25,0 C 28,9 C 30,0 C 61 % 1023,7 hPa 0,0 l/m 2 min 0 min 910 W/m 12,9 km/h (3 Bft) 95,74 %
23.06.2023 13:04 25,1 C 28,9 C 30,0 C 61 % 1023,7 hPa 0,0 l/m 2 min 0 min 915 W/m 22,5 km/h (4 Bft) 97,96 %
23.06.2023 13:06 25,0 C 28,9 C 28,9 C 60 % 1023,7 hPa 0,0 l/m 2 min 0 min 915 W/m 16,1 km/h (3 Bft) 97,87 %
23.06.2023 13:08 25,0 C 28,9 C 29,4 C 61 % 1023,7 hPa 0,0 l/m 2 min 0 min 914 W/m 16,1 km/h (3 Bft) 100,00 %
23.06.2023 13:10 25,0 C 28,9 C 29,4 C 60 % 1023,7 hPa 0,0 l/m 2 min 0 min 916 W/m 19,3 km/h (3 Bft) 97,87 %
23.06.2023 13:12 25,0 C 28,9 C 28,9 C 60 % 1023,7 hPa 0,0 l/m 2 min 0 min 916 W/m 19,3 km/h (3 Bft) 100,00 %
23.06.2023 13:14 24,9 C 28,9 C 28,9 C 60 % 1023,7 hPa 0,0 l/m 2 min 0 min 913 W/m 6,4 km/h (2 Bft) 100,00 %
23.06.2023 13:16 25,0 C 28,3 C 28,3 C 61 % 1023,8 hPa 0,0 l/m 2 min 0 min 917 W/m 6,4 km/h (2 Bft) 97,87 %
23.06.2023 13:18 25,0 C 28,9 C 27,2 C 60 % 1023,7 hPa 0,0 l/m 2 min 0 min 920 W/m 6,4 km/h (2 Bft) 100,00 %
23.06.2023 13:20 25,0 C 28,9 C 26,7 C 60 % 1023,7 hPa 0,0 l/m 2 min 0 min 922 W/m 9,7 km/h (2 Bft) 100,00 %
23.06.2023 13:22 25,1 C 29,4 C 27,2 C 61 % 1023,7 hPa 0,0 l/m 2 min 0 min 918 W/m 19,3 km/h (3 Bft) 100,00 %
23.06.2023 13:24 25,1 C 29,4 C 28,3 C 60 % 1023,7 hPa 0,0 l/m 2 min 0 min 914 W/m 12,9 km/h (3 Bft) 100,00 %
23.06.2023 13:26 25,2 C 29,4 C 28,9 C 59 % 1023,7 hPa 0,0 l/m 2 min 0 min 924 W/m 12,9 km/h (3 Bft) 100,00 %
23.06.2023 13:28 25,2 C 29,4 C 29,4 C 59 % 1023,7 hPa 0,0 l/m 2 min 0 min 923 W/m 6,4 km/h (2 Bft) 100,00 %
23.06.2023 13:30 25,3 C 30,0 C 29,4 C 60 % 1023,7 hPa 0,0 l/m 2 min 0 min 922 W/m 12,9 km/h (3 Bft) 97,87 %
23.06.2023 13:32 25,4 C 29,4 C 29,4 C 59 % 1023,8 hPa 0,0 l/m 2 min 0 min 926 W/m 16,1 km/h (3 Bft) 97,87 %
23.06.2023 13:34 25,4 C 30,0 C 29,4 C 59 % 1023,8 hPa 0,0 l/m 2 min 0 min 931 W/m 12,9 km/h (3 Bft) 100,00 %
23.06.2023 13:36 25,4 C 30,0 C 28,9 C 58 % 1023,7 hPa 0,0 l/m 2 min 0 min 925 W/m 12,9 km/h (3 Bft) 97,87 %
23.06.2023 13:38 25,5 C 30,6 C 28,9 C 59 % 1023,8 hPa 0,0 l/m 2 min 0 min 936 W/m 16,1 km/h (3 Bft) 100,00 %
23.06.2023 13:40 25,5 C 30,6 C 28,9 C 57 % 1023,8 hPa 0,0 l/m 2 min 0 min 938 W/m 19,3 km/h (3 Bft) 100,00 %
23.06.2023 13:42 25,5 C 30,6 C 29,4 C 58 % 1023,8 hPa 0,0 l/m 2 min 0 min 934 W/m 16,1 km/h (3 Bft) 97,87 %
23.06.2023 13:44 25,6 C 31,1 C 30,6 C 58 % 1023,9 hPa 0,0 l/m 2 min 0 min 931 W/m 9,7 km/h (2 Bft) 100,00 %
23.06.2023 13:46 25,6 C 30,6 C 30,6 C 58 % 1023,9 hPa 0,0 l/m 2 min 0 min 922 W/m 9,7 km/h (2 Bft) 97,87 %
23.06.2023 13:48 25,6 C 30,6 C 31,1 C 58 % 1023,8 hPa 0,0 l/m 2 min 0 min 921 W/m 16,1 km/h (3 Bft) 100,00 %
23.06.2023 13:50 25,6 C 30,6 C 31,1 C 57 % 1023,8 hPa 0,0 l/m 2 min 0 min 918 W/m 19,3 km/h (3 Bft) 100,00 %
23.06.2023 13:52 25,7 C 30,6 C 30,0 C 56 % 1023,8 hPa 0,0 l/m 2 min 0 min 932 W/m 19,3 km/h (3 Bft) 100,00 %
23.06.2023 13:54 25,7 C 30,0 C 30,0 C 56 % 1023,9 hPa 0,0 l/m 2 min 0 min 934 W/m 22,5 km/h (4 Bft) 97,83 %
23.06.2023 13:56 25,6 C 30,0 C 28,3 C 57 % 1023,9 hPa 0,0 l/m 2 min 0 min 934 W/m 9,7 km/h (2 Bft) 100,00 %
23.06.2023 13:58 25,6 C 30,6 C 27,8 C 57 % 1023,9 hPa 0,0 l/m 2 min 0 min 934 W/m 12,9 km/h (3 Bft) 100,00 %
23.06.2023 14:00 25,6 C 30,6 C 26,7 C 57 % 1023,9 hPa 0,0 l/m 2 min 0 min 928 W/m 12,9 km/h (3 Bft) 97,87 %
23.06.2023 14:02 25,7 C 30,6 C 25,6 C 58 % 1023,9 hPa 0,0 l/m 2 min 0 min 919 W/m 9,7 km/h (2 Bft) 97,87 %
23.06.2023 14:04 25,8 C 31,7 C 25,6 C 58 % 1024,0 hPa 0,0 l/m 2 min 0 min 924 W/m 9,7 km/h (2 Bft) 97,96 %
23.06.2023 14:06 25,9 C 31,1 C 25,0 C 58 % 1024,0 hPa 0,0 l/m 2 min 0 min 923 W/m 16,1 km/h (3 Bft) 97,83 %
23.06.2023 14:08 26,0 C 31,1 C 24,4 C 56 % 1024,0 hPa 0,0 l/m 2 min 0 min 916 W/m 19,3 km/h (3 Bft) 95,74 %
23.06.2023 14:10 26,0 C 30,6 C 23,9 C 56 % 1023,9 hPa 0,0 l/m 2 min 0 min 903 W/m 16,1 km/h (3 Bft) 97,87 %
23.06.2023 14:12 26,0 C 31,1 C 22,8 C 57 % 1024,0 hPa 0,0 l/m 2 min 0 min 925 W/m 19,3 km/h (3 Bft) 95,74 %
23.06.2023 14:14 26,1 C 30,6 C 22,8 C 56 % 1024,0 hPa 0,0 l/m 2 min 0 min 924 W/m 22,5 km/h (4 Bft) 95,74 %
23.06.2023 14:16 26,1 C 31,1 C 22,8 C 56 % 1024,0 hPa 0,0 l/m 2 min 0 min 921 W/m 19,3 km/h (3 Bft) 95,74 %
23.06.2023 14:18 26,1 C 31,1 C 22,8 C 56 % 1024,0 hPa 0,0 l/m 2 min 0 min 921 W/m 9,7 km/h (2 Bft) 95,74 %
23.06.2023 14:20 26,2 C 31,1 C 22,8 C 56 % 1024,0 hPa 0,0 l/m 2 min 0 min 911 W/m 9,7 km/h (2 Bft) 95,65 %
23.06.2023 14:22 26,2 C 31,1 C 22,8 C 58 % 1023,9 hPa 0,0 l/m 2 min 0 min 909 W/m 12,9 km/h (3 Bft) 95,74 %
23.06.2023 14:24 26,2 C 30,6 C 22,8 C 57 % 1024,0 hPa 0,0 l/m 2 min 0 min 922 W/m 16,1 km/h (3 Bft) 93,62 %
23.06.2023 14:26 26,2 C 30,6 C 22,8 C 57 % 1023,9 hPa 0,0 l/m 2 min 0 min 921 W/m 12,9 km/h (3 Bft) 93,62 %
23.06.2023 14:28 26,3 C 31,1 C 22,8 C 57 % 1024,0 hPa 0,0 l/m 2 min 0 min 931 W/m 16,1 km/h (3 Bft) 95,74 %
23.06.2023 14:30 26,3 C 31,1 C 22,8 C 58 % 1023,9 hPa 0,0 l/m 2 min 0 min 934 W/m 12,9 km/h (3 Bft) 93,62 %
23.06.2023 14:32 26,3 C 30,6 C 22,8 C 58 % 1024,0 hPa 0,0 l/m 2 min 0 min 936 W/m 12,9 km/h (3 Bft) 95,74 %
23.06.2023 14:34 26,3 C 31,1 C 22,8 C 57 % 1023,9 hPa 0,0 l/m 2 min 0 min 925 W/m 12,9 km/h (3 Bft) 95,65 %
23.06.2023 14:36 26,3 C 30,0 C 22,8 C 57 % 1024,0 hPa 0,0 l/m 2 min 0 min 923 W/m 22,5 km/h (4 Bft) 95,74 %
23.06.2023 14:38 26,3 C 30,0 C 22,2 C 56 % 1024,0 hPa 0,0 l/m 2 min 0 min 897 W/m 19,3 km/h (3 Bft) 93,62 %
23.06.2023 14:40 26,3 C 30,6 C 22,2 C 56 % 1023,9 hPa 0,0 l/m 2 min 0 min 920 W/m 9,7 km/h (2 Bft) 95,74 %
23.06.2023 14:42 26,3 C 31,1 C 22,2 C 58 % 1024,0 hPa 0,0 l/m 2 min 0 min 915 W/m 19,3 km/h (3 Bft) 91,49 %
23.06.2023 14:44 26,4 C 31,1 C 22,2 C 56 % 1023,9 hPa 0,0 l/m 2 min 0 min 921 W/m 22,5 km/h (4 Bft) 100,00 %
23.06.2023 14:46 26,4 C 31,1 C 22,2 C 56 % 1023,9 hPa 0,0 l/m 2 min 0 min 915 W/m 19,3 km/h (3 Bft) 100,00 %
23.06.2023 14:48 26,5 C 31,1 C 22,2 C 56 % 1023,9 hPa 0,0 l/m 2 min 0 min 908 W/m 9,7 km/h (2 Bft) 100,00 %
23.06.2023 14:50 26,5 C 31,1 C 22,8 C 56 % 1023,9 hPa 0,0 l/m 2 min 0 min 914 W/m 12,9 km/h (3 Bft) 97,87 %
23.06.2023 14:52 26,6 C 31,1 C 22,8 C 57 % 1023,9 hPa 0,0 l/m 2 min 0 min 917 W/m 12,9 km/h (3 Bft) 100,00 %
23.06.2023 14:54 26,6 C 31,1 C 22,8 C 56 % 1023,8 hPa 0,0 l/m 2 min 0 min 919 W/m 16,1 km/h (3 Bft) 100,00 %
23.06.2023 14:56 26,6 C 30,6 C 22,2 C 56 % 1023,9 hPa 0,0 l/m 2 min 0 min 929 W/m 16,1 km/h (3 Bft) 100,00 %
23.06.2023 14:58 26,6 C 31,1 C 22,8 C 57 % 1023,9 hPa 0,0 l/m 2 min 0 min 927 W/m 9,7 km/h (2 Bft) 98,31 %
23.06.2023 15:00 26,7 C 31,7 C 22,8 C 56 % 1023,8 hPa 0,0 l/m 2 min 0 min 912 W/m 16,1 km/h (3 Bft) 100,00 %
23.06.2023 15:02 26,7 C 31,7 C 22,8 C 58 % 1023,8 hPa 0,0 l/m 2 min 0 min 908 W/m 16,1 km/h (3 Bft) 100,00 %
23.06.2023 15:04 26,7 C 31,1 C 22,8 C 57 % 1023,8 hPa 0,0 l/m 2 min 0 min 917 W/m 16,1 km/h (3 Bft) 97,96 %
23.06.2023 15:06 26,8 C 31,1 C 22,8 C 58 % 1023,8 hPa 0,0 l/m 2 min 0 min 906 W/m 9,7 km/h (2 Bft) 100,00 %
23.06.2023 15:08 26,8 C 31,1 C 22,8 C 56 % 1023,8 hPa 0,0 l/m 2 min 0 min 892 W/m 19,3 km/h (3 Bft) 97,87 %
23.06.2023 15:10 26,8 C 30,6 C 22,2 C 56 % 1023,9 hPa 0,0 l/m 2 min 0 min 908 W/m 19,3 km/h (3 Bft) 100,00 %
23.06.2023 15:12 26,7 C 31,1 C 22,2 C 56 % 1023,8 hPa 0,0 l/m 2 min 0 min 898 W/m 12,9 km/h (3 Bft) 97,87 %
23.06.2023 15:14 26,8 C 31,1 C 22,8 C 57 % 1023,8 hPa 0,0 l/m 2 min 0 min 897 W/m 12,9 km/h (3 Bft) 100,00 %
23.06.2023 15:16 26,8 C 30,0 C 22,8 C 56 % 1023,8 hPa 0,0 l/m 2 min 0 min 895 W/m 9,7 km/h (2 Bft) 100,00 %
23.06.2023 15:18 26,8 C 30,6 C 22,2 C 56 % 1023,8 hPa 0,0 l/m 2 min 0 min 889 W/m 9,7 km/h (2 Bft) 97,87 %
23.06.2023 15:20 26,8 C 31,1 C 22,2 C 58 % 1023,8 hPa 0,0 l/m 2 min 0 min 896 W/m 6,4 km/h (2 Bft) 97,83 %
23.06.2023 15:22 26,9 C 31,1 C 22,8 C 58 % 1023,9 hPa 0,0 l/m 2 min 0 min 893 W/m 12,9 km/h (3 Bft) 97,87 %
23.06.2023 15:24 26,9 C 31,1 C 22,8 C 57 % 1023,8 hPa 0,0 l/m 2 min 0 min 891 W/m 6,4 km/h (2 Bft) 97,87 %
23.06.2023 15:26 26,9 C 31,1 C 22,8 C 57 % 1023,8 hPa 0,0 l/m 2 min 0 min 871 W/m 12,9 km/h (3 Bft) 97,87 %
23.06.2023 15:28 27,1 C 31,1 C 22,8 C 57 % 1023,8 hPa 0,0 l/m 2 min 0 min 864 W/m 16,1 km/h (3 Bft) 97,87 %
23.06.2023 15:30 27,1 C 31,7 C 22,8 C 59 % 1023,8 hPa 0,0 l/m 2 min 0 min 865 W/m 12,9 km/h (3 Bft) 97,87 %
23.06.2023 15:32 27,2 C 31,1 C 22,8 C 57 % 1023,8 hPa 0,0 l/m 2 min 0 min 857 W/m 19,3 km/h (3 Bft) 95,74 %
23.06.2023 15:34 27,2 C 31,1 C 22,8 C 57 % 1023,8 hPa 0,0 l/m 2 min 0 min 876 W/m 16,1 km/h (3 Bft) 97,83 %
23.06.2023 15:36 27,2 C 31,1 C 22,8 C 57 % 1023,7 hPa 0,0 l/m 2 min 0 min 881 W/m 9,7 km/h (2 Bft) 97,87 %
23.06.2023 15:38 27,1 C 29,4 C 22,8 C 58 % 1023,8 hPa 0,0 l/m 2 min 0 min 914 W/m 16,1 km/h (3 Bft) 97,87 %
23.06.2023 15:40 27,1 C 29,4 C 22,8 C 59 % 1023,7 hPa 0,0 l/m 2 min 0 min 921 W/m 12,9 km/h (3 Bft) 95,74 %
23.06.2023 15:42 27,1 C 29,4 C 22,8 C 59 % 1023,7 hPa 0,0 l/m 0 min 0 min 340 W/m 19,3 km/h (3 Bft) 97,87 %
23.06.2023 15:44 27,1 C 29,4 C 22,8 C 59 % 1023,7 hPa 0,0 l/m 2 min 0 min 910 W/m 19,3 km/h (3 Bft) 97,87 %
23.06.2023 15:46 27,1 C 30,6 C 22,8 C 59 % 1023,7 hPa 0,0 l/m 2 min 0 min 936 W/m 16,1 km/h (3 Bft) 97,87 %
23.06.2023 15:48 27,1 C 30,6 C 22,8 C 58 % 1023,7 hPa 0,0 l/m 2 min 0 min 939 W/m 19,3 km/h (3 Bft) 95,65 %
23.06.2023 15:50 27,1 C 30,6 C 22,8 C 58 % 1023,7 hPa 0,0 l/m 2 min 0 min 892 W/m 16,1 km/h (3 Bft) 97,87 %
23.06.2023 15:52 27,2 C 31,1 C 22,8 C 60 % 1023,7 hPa 0,0 l/m 2 min 0 min 899 W/m 6,4 km/h (2 Bft) 97,87 %
23.06.2023 15:54 27,3 C 31,1 C 23,3 C 59 % 1023,6 hPa 0,0 l/m 2 min 0 min 916 W/m 16,1 km/h (3 Bft) 97,87 %
23.06.2023 15:56 27,3 C 30,6 C 22,8 C 58 % 1023,7 hPa 0,0 l/m 2 min 0 min 860 W/m 12,9 km/h (3 Bft) 97,87 %
23.06.2023 15:58 27,4 C 31,1 C 23,3 C 58 % 1023,7 hPa 0,0 l/m 2 min 0 min 860 W/m 16,1 km/h (3 Bft) 95,74 %
23.06.2023 16:00 27,4 C 31,1 C 23,3 C 57 % 1023,7 hPa 0,0 l/m 2 min 0 min 874 W/m 12,9 km/h (3 Bft) 97,87 %
23.06.2023 16:02 27,6 C 31,1 C 23,3 C 55 % 1023,6 hPa 0,0 l/m 2 min 0 min 818 W/m 19,3 km/h (3 Bft) 93,48 %
23.06.2023 16:04 27,6 C 31,1 C 23,3 C 57 % 1023,7 hPa 0,0 l/m 2 min 0 min 808 W/m 22,5 km/h (4 Bft) 100,00 %
23.06.2023 16:06 27,6 C 30,6 C 23,3 C 56 % 1023,7 hPa 0,0 l/m 2 min 0 min 807 W/m 19,3 km/h (3 Bft) 98,31 %
23.06.2023 16:08 27,6 C 30,6 C 23,3 C 56 % 1023,7 hPa 0,0 l/m 2 min 0 min 810 W/m 16,1 km/h (3 Bft) 100,00 %
23.06.2023 16:10 27,6 C 31,1 C 23,3 C 58 % 1023,6 hPa 0,0 l/m 2 min 0 min 816 W/m 12,9 km/h (3 Bft) 97,87 %
23.06.2023 16:12 27,6 C 29,4 C 23,3 C 59 % 1023,7 hPa 0,0 l/m 2 min 0 min 529 W/m 12,9 km/h (3 Bft) 95,74 %
23.06.2023 16:14 27,6 C 28,3 C 22,8 C 58 % 1023,6 hPa 0,0 l/m 0 min 0 min 196 W/m 12,9 km/h (3 Bft) 97,87 %
23.06.2023 16:16 27,6 C 28,9 C 22,8 C 58 % 1023,6 hPa 0,0 l/m 0 min 0 min 210 W/m 9,7 km/h (2 Bft) 95,65 %
23.06.2023 16:18 27,6 C 30,0 C 22,8 C 58 % 1023,7 hPa 0,0 l/m 2 min 0 min 731 W/m 16,1 km/h (3 Bft) 97,87 %
23.06.2023 16:20 27,6 C 30,6 C 22,8 C 57 % 1023,7 hPa 0,0 l/m 2 min 0 min 842 W/m 6,4 km/h (2 Bft) 97,87 %
23.06.2023 16:22 27,6 C 31,1 C 23,3 C 56 % 1023,7 hPa 0,0 l/m 2 min 0 min 834 W/m 12,9 km/h (3 Bft) 97,87 %
23.06.2023 16:24 27,6 C 31,1 C 23,3 C 57 % 1023,7 hPa 0,0 l/m 2 min 0 min 813 W/m 19,3 km/h (3 Bft) 97,87 %
23.06.2023 16:26 27,6 C 31,1 C 23,3 C 58 % 1023,6 hPa 0,0 l/m 2 min 0 min 789 W/m 16,1 km/h (3 Bft) 97,87 %
23.06.2023 16:28 27,6 C 31,7 C 23,3 C 58 % 1023,6 hPa 0,0 l/m 2 min 0 min 776 W/m 12,9 km/h (3 Bft) 95,74 %
23.06.2023 16:30 27,7 C 31,7 C 23,3 C 57 % 1023,6 hPa 0,0 l/m 2 min 0 min 758 W/m 12,9 km/h (3 Bft) 97,83 %
23.06.2023 16:32 27,7 C 31,7 C 23,3 C 56 % 1023,6 hPa 0,0 l/m 2 min 0 min 745 W/m 22,5 km/h (4 Bft) 95,74 %
23.06.2023 16:34 27,7 C 31,1 C 23,3 C 56 % 1023,6 hPa 0,0 l/m 2 min 0 min 709 W/m 16,1 km/h (3 Bft) 97,87 %
23.06.2023 16:36 27,7 C 31,1 C 23,3 C 56 % 1023,6 hPa 0,0 l/m 2 min 0 min 702 W/m 19,3 km/h (3 Bft) 97,87 %
23.06.2023 16:38 27,7 C 30,6 C 23,3 C 57 % 1023,6 hPa 0,0 l/m 2 min 0 min 694 W/m 19,3 km/h (3 Bft) 97,87 %
23.06.2023 16:40 27,7 C 31,1 C 23,3 C 54 % 1023,6 hPa 0,0 l/m 2 min 0 min 672 W/m 9,7 km/h (2 Bft) 97,87 %
23.06.2023 16:42 27,7 C 30,6 C 23,3 C 56 % 1023,6 hPa 0,0 l/m 2 min 0 min 640 W/m 16,1 km/h (3 Bft) 97,87 %
23.06.2023 16:44 27,7 C 31,1 C 22,8 C 56 % 1023,6 hPa 0,0 l/m 2 min 0 min 645 W/m 12,9 km/h (3 Bft) 97,87 %
23.06.2023 16:46 27,7 C 31,1 C 23,3 C 56 % 1023,6 hPa 0,0 l/m 2 min 0 min 629 W/m 19,3 km/h (3 Bft) 95,65 %
23.06.2023 16:48 27,6 C 31,1 C 23,3 C 56 % 1023,6 hPa 0,0 l/m 2 min 0 min 660 W/m 12,9 km/h (3 Bft) 97,87 %
23.06.2023 16:50 27,6 C 31,1 C 23,3 C 56 % 1023,6 hPa 0,0 l/m 2 min 0 min 678 W/m 12,9 km/h (3 Bft) 97,87 %
23.06.2023 16:52 27,6 C 31,1 C 23,3 C 56 % 1023,6 hPa 0,0 l/m 2 min 0 min 708 W/m 6,4 km/h (2 Bft) 97,87 %
23.06.2023 16:54 27,7 C 31,7 C 23,3 C 57 % 1023,6 hPa 0,0 l/m 2 min 0 min 712 W/m 19,3 km/h (3 Bft) 97,87 %
23.06.2023 16:56 27,7 C 31,7 C 23,3 C 56 % 1023,6 hPa 0,0 l/m 2 min 0 min 697 W/m 16,1 km/h (3 Bft) 95,74 %
23.06.2023 16:58 27,7 C 31,1 C 23,3 C 55 % 1023,7 hPa 0,0 l/m 2 min 0 min 667 W/m 16,1 km/h (3 Bft) 95,65 %
23.06.2023 17:00 27,7 C 30,6 C 23,3 C 55 % 1023,7 hPa 0,0 l/m 2 min 0 min 603 W/m 29,0 km/h (5 Bft) 97,87 %
23.06.2023 17:02 27,7 C 31,1 C 23,3 C 56 % 1023,7 hPa 0,0 l/m 2 min 0 min 638 W/m 16,1 km/h (3 Bft) 95,74 %
23.06.2023 17:04 27,7 C 30,6 C 23,3 C 56 % 1023,7 hPa 0,0 l/m 2 min 0 min 658 W/m 12,9 km/h (3 Bft) 91,67 %
23.06.2023 17:06 27,7 C 31,1 C 23,3 C 56 % 1023,7 hPa 0,0 l/m 2 min 0 min 659 W/m 9,7 km/h (2 Bft) 97,92 %
23.06.2023 17:08 27,7 C 31,1 C 23,3 C 56 % 1023,7 hPa 0,0 l/m 2 min 0 min 674 W/m 12,9 km/h (3 Bft) 97,87 %
23.06.2023 17:10 27,6 C 31,1 C 23,3 C 57 % 1023,7 hPa 0,0 l/m 2 min 0 min 697 W/m 16,1 km/h (3 Bft) 98,00 %
23.06.2023 17:12 27,7 C 31,1 C 23,3 C 56 % 1023,7 hPa 0,0 l/m 2 min 0 min 687 W/m 16,1 km/h (3 Bft) 95,65 %
23.06.2023 17:14 27,7 C 31,1 C 23,3 C 54 % 1023,7 hPa 0,0 l/m 2 min 0 min 626 W/m 12,9 km/h (3 Bft) 97,87 %
23.06.2023 17:16 27,7 C 31,1 C 23,9 C 55 % 1023,8 hPa 0,0 l/m 2 min 0 min 653 W/m 19,3 km/h (3 Bft) 97,87 %
23.06.2023 17:18 27,7 C 31,1 C 23,9 C 55 % 1023,8 hPa 0,0 l/m 2 min 0 min 628 W/m 22,5 km/h (4 Bft) 97,87 %
23.06.2023 17:20 27,7 C 31,1 C 23,9 C 56 % 1023,8 hPa 0,0 l/m 2 min 0 min 629 W/m 6,4 km/h (2 Bft) 97,87 %
23.06.2023 17:22 27,7 C 31,1 C 23,9 C 56 % 1023,8 hPa 0,0 l/m 2 min 0 min 688 W/m 6,4 km/h (2 Bft) 97,87 %
23.06.2023 17:24 27,7 C 31,7 C 23,9 C 55 % 1023,7 hPa 0,0 l/m 2 min 0 min 703 W/m 16,1 km/h (3 Bft) 100,00 %
23.06.2023 17:26 27,8 C 31,7 C 23,9 C 56 % 1023,7 hPa 0,0 l/m 2 min 0 min 692 W/m 19,3 km/h (3 Bft) 100,00 %
23.06.2023 17:28 27,8 C 31,7 C 23,9 C 55 % 1023,7 hPa 0,0 l/m 2 min 0 min 668 W/m 16,1 km/h (3 Bft) 100,00 %
23.06.2023 17:30 27,8 C 30,6 C 23,9 C 56 % 1023,7 hPa 0,0 l/m 2 min 0 min 578 W/m 12,9 km/h (3 Bft) 100,00 %
23.06.2023 17:32 27,8 C 28,9 C 23,3 C 54 % 1023,7 hPa 0,0 l/m 0 min 0 min 213 W/m 12,9 km/h (3 Bft) 97,87 %
23.06.2023 17:34 27,6 C 29,4 C 23,3 C 54 % 1023,7 hPa 0,0 l/m 0 min 0 min 235 W/m 6,4 km/h (2 Bft) 97,87 %
23.06.2023 17:36 27,6 C 30,6 C 23,3 C 56 % 1023,7 hPa 0,0 l/m 2 min 0 min 659 W/m 6,4 km/h (2 Bft) 97,87 %
23.06.2023 17:38 27,7 C 31,7 C 23,9 C 57 % 1023,7 hPa 0,0 l/m 2 min 0 min 620 W/m 6,4 km/h (2 Bft) 100,00 %
23.06.2023 17:40 27,8 C 32,2 C 23,9 C 56 % 1023,8 hPa 0,0 l/m 2 min 0 min 606 W/m 16,1 km/h (3 Bft) 100,00 %
23.06.2023 17:42 27,9 C 32,2 C 24,4 C 56 % 1023,8 hPa 0,0 l/m 2 min 0 min 603 W/m 22,5 km/h (4 Bft) 100,00 %
23.06.2023 17:44 27,9 C 31,7 C 23,9 C 54 % 1023,8 hPa 0,0 l/m 2 min 0 min 564 W/m 16,1 km/h (3 Bft) 100,00 %
23.06.2023 17:46 27,9 C 31,1 C 23,9 C 55 % 1023,8 hPa 0,0 l/m 2 min 0 min 562 W/m 25,7 km/h (4 Bft) 100,00 %
23.06.2023 17:48 27,9 C 30,6 C 23,9 C 55 % 1023,8 hPa 0,0 l/m 2 min 0 min 589 W/m 16,1 km/h (3 Bft) 100,00 %
23.06.2023 17:50 27,8 C 28,9 C 23,3 C 54 % 1023,8 hPa 0,0 l/m 0 min 0 min 272 W/m 19,3 km/h (3 Bft) 97,87 %
23.06.2023 17:52 27,8 C 27,8 C 23,3 C 55 % 1023,7 hPa 0,0 l/m 0 min 0 min 187 W/m 22,5 km/h (4 Bft) 97,87 %
23.06.2023 17:54 27,6 C 27,2 C 22,8 C 55 % 1023,7 hPa 0,0 l/m 0 min 0 min 174 W/m 12,9 km/h (3 Bft) 97,83 %
23.06.2023 17:56 27,4 C 26,7 C 22,8 C 55 % 1023,7 hPa 0,0 l/m 0 min 0 min 158 W/m 19,3 km/h (3 Bft) 97,87 %
23.06.2023 17:58 27,3 C 27,2 C 22,8 C 55 % 1023,7 hPa 0,0 l/m 0 min 0 min 184 W/m 6,4 km/h (2 Bft) 95,74 %
23.06.2023 18:00 27,3 C 28,3 C 22,8 C 56 % 1023,6 hPa 0,0 l/m 2 min 0 min 284 W/m 9,7 km/h (2 Bft) 97,87 %
23.06.2023 18:02 27,3 C 29,4 C 22,8 C 56 % 1023,7 hPa 0,0 l/m 2 min 0 min 479 W/m 16,1 km/h (3 Bft) 97,87 %
23.06.2023 18:05 27,2 C 30,0 C 23,3 C 56 % 1023,7 hPa 0,0 l/m 3 min 0 min 427 W/m 16,1 km/h (3 Bft) 94,44 %
23.06.2023 18:10 27,2 C 29,4 C 23,3 C 56 % 1023,8 hPa 0,0 l/m 5 min 0 min 370 W/m 9,7 km/h (2 Bft) 98,18 %
23.06.2023 18:12 27,1 C 28,3 C 22,8 C 56 % 1023,8 hPa 0,0 l/m 0 min 0 min 144 W/m 12,9 km/h (3 Bft) 93,62 %
23.06.2023 18:14 27,1 C 27,8 C 22,8 C 56 % 1023,9 hPa 0,0 l/m 0 min 0 min 145 W/m 16,1 km/h (3 Bft) 95,74 %
23.06.2023 18:16 27,0 C 29,4 C 22,8 C 57 % 1023,9 hPa 0,0 l/m 0 min 0 min 204 W/m 6,4 km/h (2 Bft) 95,74 %
23.06.2023 18:18 27,0 C 30,0 C 22,8 C 58 % 1023,9 hPa 0,0 l/m 2 min 0 min 486 W/m 9,7 km/h (2 Bft) 95,65 %
23.06.2023 18:20 27,0 C 30,6 C 23,3 C 57 % 1023,9 hPa 0,0 l/m 2 min 0 min 490 W/m 12,9 km/h (3 Bft) 93,75 %
23.06.2023 18:22 27,1 C 31,1 C 23,3 C 57 % 1023,9 hPa 0,0 l/m 2 min 0 min 446 W/m 16,1 km/h (3 Bft) 93,62 %
23.06.2023 18:24 27,1 C 30,6 C 23,3 C 56 % 1023,9 hPa 0,0 l/m 2 min 0 min 438 W/m 9,7 km/h (2 Bft) 95,74 %
23.06.2023 18:26 27,2 C 30,6 C 23,3 C 56 % 1023,9 hPa 0,0 l/m 2 min 0 min 459 W/m 16,1 km/h (3 Bft) 95,74 %
23.06.2023 18:28 27,2 C 30,6 C 23,9 C 55 % 1023,9 hPa 0,0 l/m 2 min 0 min 442 W/m 19,3 km/h (3 Bft) 93,62 %
23.06.2023 18:30 27,3 C 30,6 C 23,9 C 56 % 1023,8 hPa 0,0 l/m 2 min 0 min 454 W/m 12,9 km/h (3 Bft) 97,87 %
23.06.2023 18:32 27,2 C 30,0 C 23,9 C 56 % 1023,9 hPa 0,0 l/m 2 min 0 min 401 W/m 12,9 km/h (3 Bft) 97,83 %
23.06.2023 18:34 27,2 C 30,0 C 23,9 C 57 % 1023,8 hPa 0,0 l/m 2 min 0 min 314 W/m 16,1 km/h (3 Bft) 97,87 %
23.06.2023 18:36 27,2 C 29,4 C 23,3 C 56 % 1023,9 hPa 0,0 l/m 2 min 0 min 344 W/m 9,7 km/h (2 Bft) 97,87 %
23.06.2023 18:38 27,2 C 29,4 C 23,3 C 57 % 1023,9 hPa 0,0 l/m 2 min 0 min 334 W/m 16,1 km/h (3 Bft) 97,87 %
23.06.2023 18:40 27,2 C 29,4 C 22,8 C 56 % 1023,9 hPa 0,0 l/m 2 min 0 min 375 W/m 12,9 km/h (3 Bft) 97,87 %
23.06.2023 18:42 27,2 C 30,0 C 23,3 C 58 % 1023,8 hPa 0,0 l/m 2 min 0 min 383 W/m 6,4 km/h (2 Bft) 95,74 %
23.06.2023 18:44 27,2 C 30,6 C 23,3 C 58 % 1023,8 hPa 0,0 l/m 2 min 0 min 391 W/m 9,7 km/h (2 Bft) 97,87 %
23.06.2023 18:46 27,2 C 30,6 C 23,3 C 58 % 1023,8 hPa 0,0 l/m 2 min 0 min 402 W/m 16,1 km/h (3 Bft) 97,83 %
23.06.2023 18:48 27,2 C 30,0 C 23,3 C 55 % 1023,8 hPa 0,0 l/m 2 min 0 min 356 W/m 16,1 km/h (3 Bft) 97,87 %
23.06.2023 18:50 27,2 C 30,0 C 23,3 C 55 % 1023,8 hPa 0,0 l/m 2 min 0 min 324 W/m 16,1 km/h (3 Bft) 97,87 %
23.06.2023 18:52 27,2 C 30,0 C 23,3 C 55 % 1023,8 hPa 0,0 l/m 2 min 0 min 326 W/m 19,3 km/h (3 Bft) 97,87 %
23.06.2023 18:54 27,2 C 30,0 C 23,3 C 55 % 1023,8 hPa 0,0 l/m 2 min 0 min 333 W/m 19,3 km/h (3 Bft) 97,87 %
23.06.2023 18:56 27,2 C 30,0 C 23,3 C 56 % 1023,8 hPa 0,0 l/m 2 min 0 min 310 W/m 3,2 km/h (1 Bft) 97,87 %
23.06.2023 18:58 27,2 C 29,4 C 23,3 C 55 % 1023,9 hPa 0,0 l/m 2 min 0 min 288 W/m 6,4 km/h (2 Bft) 97,87 %
23.06.2023 19:00 27,2 C 29,4 C 22,8 C 55 % 1023,9 hPa 0,0 l/m 2 min 0 min 297 W/m 12,9 km/h (3 Bft) 97,87 %
23.06.2023 19:02 27,1 C 29,4 C 22,8 C 56 % 1023,9 hPa 0,0 l/m 2 min 0 min 283 W/m 9,7 km/h (2 Bft) 95,65 %
23.06.2023 19:04 27,1 C 29,4 C 22,8 C 57 % 1024,0 hPa 0,0 l/m 2 min 0 min 290 W/m 6,4 km/h (2 Bft) 97,87 %
23.06.2023 19:06 27,1 C 29,4 C 22,8 C 56 % 1024,0 hPa 0,0 l/m 2 min 0 min 303 W/m 6,4 km/h (2 Bft) 95,74 %
23.06.2023 19:08 27,1 C 29,4 C 22,8 C 56 % 1024,0 hPa 0,0 l/m 2 min 0 min 287 W/m 6,4 km/h (2 Bft) 100,00 %
23.06.2023 19:10 27,1 C 29,4 C 22,8 C 56 % 1024,0 hPa 0,0 l/m 2 min 0 min 277 W/m 6,4 km/h (2 Bft) 97,87 %
23.06.2023 19:12 27,1 C 29,4 C 22,8 C 56 % 1024,0 hPa 0,0 l/m 2 min 0 min 268 W/m 6,4 km/h (2 Bft) 97,87 %
23.06.2023 19:14 27,1 C 28,9 C 22,8 C 54 % 1024,0 hPa 0,0 l/m 2 min 0 min 273 W/m 12,9 km/h (3 Bft) 93,62 %
23.06.2023 19:16 27,0 C 28,3 C 22,8 C 55 % 1024,0 hPa 0,0 l/m 2 min 0 min 257 W/m 16,1 km/h (3 Bft) 97,83 %
23.06.2023 19:18 26,9 C 28,3 C 22,2 C 55 % 1024,0 hPa 0,0 l/m 2 min 0 min 249 W/m 22,5 km/h (4 Bft) 95,74 %
23.06.2023 19:20 26,9 C 28,3 C 22,2 C 55 % 1024,0 hPa 0,0 l/m 2 min 0 min 250 W/m 12,9 km/h (3 Bft) 95,74 %
23.06.2023 19:22 26,9 C 28,3 C 22,2 C 55 % 1024,0 hPa 0,0 l/m 2 min 0 min 242 W/m 16,1 km/h (3 Bft) 97,87 %
23.06.2023 19:24 26,9 C 27,8 C 22,2 C 55 % 1024,0 hPa 0,0 l/m 2 min 0 min 213 W/m 9,7 km/h (2 Bft) 97,87 %
23.06.2023 19:26 26,9 C 27,8 C 22,2 C 56 % 1024,1 hPa 0,0 l/m 2 min 0 min 218 W/m 6,4 km/h (2 Bft) 97,87 %
23.06.2023 19:28 26,8 C 27,8 C 21,7 C 56 % 1024,1 hPa 0,0 l/m 2 min 0 min 253 W/m 12,9 km/h (3 Bft) 95,74 %
23.06.2023 19:30 26,8 C 27,8 C 21,7 C 57 % 1024,1 hPa 0,0 l/m 2 min 0 min 249 W/m 12,9 km/h (3 Bft) 97,83 %
23.06.2023 19:32 26,8 C 27,2 C 21,7 C 55 % 1024,2 hPa 0,0 l/m 2 min 0 min 223 W/m 9,7 km/h (2 Bft) 97,87 %
23.06.2023 19:34 26,7 C 26,7 C 21,7 C 56 % 1024,1 hPa 0,0 l/m 2 min 0 min 224 W/m 19,3 km/h (3 Bft) 97,87 %
23.06.2023 19:36 26,7 C 26,7 C 21,7 C 57 % 1024,1 hPa 0,0 l/m 2 min 0 min 205 W/m 9,7 km/h (2 Bft) 95,74 %
23.06.2023 19:38 26,6 C 26,7 C 21,7 C 57 % 1024,1 hPa 0,0 l/m 2 min 0 min 176 W/m 9,7 km/h (2 Bft) 97,87 %
23.06.2023 19:40 26,5 C 26,1 C 21,7 C 57 % 1024,2 hPa 0,0 l/m 2 min 0 min 175 W/m 9,7 km/h (2 Bft) 97,87 %
23.06.2023 19:42 26,4 C 26,1 C 21,7 C 57 % 1024,2 hPa 0,0 l/m 2 min 0 min 186 W/m 9,7 km/h (2 Bft) 95,74 %
23.06.2023 19:44 26,3 C 25,6 C 21,7 C 56 % 1024,2 hPa 0,0 l/m 2 min 0 min 198 W/m 16,1 km/h (3 Bft) 95,65 %
23.06.2023 19:46 26,3 C 25,6 C 21,1 C 56 % 1024,2 hPa 0,0 l/m 2 min 0 min 204 W/m 9,7 km/h (2 Bft) 95,74 %
23.06.2023 19:48 26,2 C 25,6 C 21,1 C 56 % 1024,2 hPa 0,0 l/m 2 min 0 min 193 W/m 9,7 km/h (2 Bft) 97,87 %
23.06.2023 19:50 26,2 C 25,6 C 21,1 C 57 % 1024,2 hPa 0,0 l/m 2 min 0 min 151 W/m 12,9 km/h (3 Bft) 95,74 %
23.06.2023 19:52 26,1 C 25,0 C 21,1 C 57 % 1024,1 hPa 0,0 l/m 2 min 0 min 147 W/m 12,9 km/h (3 Bft) 97,87 %
23.06.2023 19:54 26,1 C 25,0 C 21,1 C 57 % 1024,1 hPa 0,0 l/m 2 min 0 min 141 W/m 9,7 km/h (2 Bft) 95,74 %
23.06.2023 19:56 25,9 C 25,0 C 21,1 C 57 % 1024,1 hPa 0,0 l/m 2 min 0 min 139 W/m 12,9 km/h (3 Bft) 95,74 %
23.06.2023 19:58 25,9 C 25,0 C 21,1 C 57 % 1024,1 hPa 0,0 l/m 0 min 0 min 124 W/m 9,7 km/h (2 Bft) 95,65 %
23.06.2023 20:00 25,9 C 25,0 C 21,1 C 57 % 1024,1 hPa 0,0 l/m 0 min 0 min 112 W/m 12,9 km/h (3 Bft) 97,87 %
23.06.2023 20:02 25,8 C 25,0 C 21,1 C 57 % 1024,1 hPa 0,0 l/m 0 min 0 min 91 W/m 9,7 km/h (2 Bft) 97,87 %
23.06.2023 20:04 25,8 C 24,4 C 20,6 C 58 % 1024,1 hPa 0,0 l/m 0 min 0 min 82 W/m 6,4 km/h (2 Bft) 95,74 %
23.06.2023 20:06 25,7 C 25,0 C 20,6 C 58 % 1024,1 hPa 0,0 l/m 0 min 0 min 74 W/m 3,2 km/h (1 Bft) 97,87 %
23.06.2023 20:12 25,6 C 24,4 C 20,6 C 58 % 1024,1 hPa 0,0 l/m 0 min 0 min 65 W/m 6,4 km/h (2 Bft) 96,88 %
23.06.2023 20:14 25,5 C 24,4 C 20,6 C 59 % 1024,2 hPa 0,0 l/m 0 min 0 min 61 W/m 6,4 km/h (2 Bft) 94,29 %
23.06.2023 20:16 25,4 C 24,4 C 20,6 C 60 % 1024,2 hPa 0,0 l/m 0 min 0 min 62 W/m 3,2 km/h (1 Bft) 95,74 %
23.06.2023 20:18 25,4 C 24,4 C 20,6 C 60 % 1024,2 hPa 0,0 l/m 0 min 0 min 53 W/m 6,4 km/h (2 Bft) 95,74 %
23.06.2023 20:20 25,4 C 24,4 C 20,6 C 60 % 1024,2 hPa 0,0 l/m 0 min 0 min 46 W/m 6,4 km/h (2 Bft) 97,87 %
23.06.2023 20:22 25,3 C 23,9 C 20,6 C 60 % 1024,2 hPa 0,0 l/m 0 min 0 min 40 W/m 6,4 km/h (2 Bft) 97,87 %
23.06.2023 20:24 25,3 C 23,9 C 20,0 C 61 % 1024,2 hPa 0,0 l/m 0 min 0 min 44 W/m 3,2 km/h (1 Bft) 97,87 %
23.06.2023 20:26 25,2 C 23,9 C 20,0 C 61 % 1024,2 hPa 0,0 l/m 0 min 0 min 49 W/m 6,4 km/h (2 Bft) 95,65 %
23.06.2023 20:28 25,2 C 23,9 C 20,0 C 61 % 1024,2 hPa 0,0 l/m 0 min 0 min 40 W/m 6,4 km/h (2 Bft) 100,00 %
23.06.2023 20:30 25,2 C 23,9 C 20,0 C 60 % 1024,2 hPa 0,0 l/m 0 min 0 min 34 W/m 6,4 km/h (2 Bft) 95,74 %
23.06.2023 20:32 25,1 C 23,9 C 20,0 C 61 % 1024,2 hPa 0,0 l/m 0 min 0 min 40 W/m 3,2 km/h (1 Bft) 100,00 %
23.06.2023 20:34 25,0 C 23,9 C 20,0 C 61 % 1024,2 hPa 0,0 l/m 0 min 0 min 44 W/m 6,4 km/h (2 Bft) 100,00 %
23.06.2023 20:36 24,9 C 23,9 C 20,0 C 61 % 1024,2 hPa 0,0 l/m 0 min 0 min 47 W/m 6,4 km/h (2 Bft) 100,00 %
23.06.2023 20:38 24,9 C 23,9 C 20,0 C 61 % 1024,2 hPa 0,0 l/m 0 min 0 min 49 W/m 6,4 km/h (2 Bft) 100,00 %
23.06.2023 20:40 24,8 C 23,9 C 20,0 C 61 % 1024,3 hPa 0,0 l/m 0 min 0 min 49 W/m 6,4 km/h (2 Bft) 100,00 %
23.06.2023 20:42 24,8 C 23,9 C 20,0 C 61 % 1024,3 hPa 0,0 l/m 0 min 0 min 49 W/m 6,4 km/h (2 Bft) 97,87 %
23.06.2023 20:44 24,8 C 23,3 C 20,0 C 61 % 1024,3 hPa 0,0 l/m 0 min 0 min 47 W/m 6,4 km/h (2 Bft) 100,00 %
23.06.2023 20:46 24,7 C 23,3 C 20,0 C 61 % 1024,3 hPa 0,0 l/m 0 min 0 min 44 W/m 6,4 km/h (2 Bft) 100,00 %
23.06.2023 20:48 24,7 C 23,3 C 20,0 C 61 % 1024,3 hPa 0,0 l/m 0 min 0 min 39 W/m 6,4 km/h (2 Bft) 97,87 %
23.06.2023 20:50 24,7 C 23,3 C 20,0 C 61 % 1024,3 hPa 0,0 l/m 0 min 0 min 37 W/m 3,2 km/h (1 Bft) 100,00 %
23.06.2023 20:52 24,6 C 23,3 C 19,4 C 62 % 1024,3 hPa 0,0 l/m 0 min 0 min 35 W/m 3,2 km/h (1 Bft) 97,83 %
23.06.2023 20:54 24,6 C 23,3 C 19,4 C 62 % 1024,3 hPa 0,0 l/m 0 min 0 min 33 W/m 3,2 km/h (1 Bft) 100,00 %
23.06.2023 20:56 24,6 C 23,3 C 19,4 C 63 % 1024,3 hPa 0,0 l/m 0 min 0 min 32 W/m 3,2 km/h (1 Bft) 100,00 %
23.06.2023 20:58 24,5 C 23,3 C 19,4 C 62 % 1024,3 hPa 0,0 l/m 0 min 0 min 30 W/m 3,2 km/h (1 Bft) 97,87 %
23.06.2023 21:00 24,4 C 23,3 C 19,4 C 63 % 1024,3 hPa 0,0 l/m 0 min 0 min 28 W/m 3,2 km/h (1 Bft) 100,00 %
23.06.2023 21:02 24,4 C 22,8 C 19,4 C 63 % 1024,3 hPa 0,0 l/m 0 min 0 min 25 W/m 0,0 km/h (0 Bft) 100,00 %
23.06.2023 21:04 24,4 C 22,8 C 19,4 C 63 % 1024,3 hPa 0,0 l/m 0 min 0 min 23 W/m 6,4 km/h (2 Bft) 100,00 %
23.06.2023 21:06 24,3 C 22,8 C 18,9 C 64 % 1024,2 hPa 0,0 l/m 0 min 0 min 20 W/m 3,2 km/h (1 Bft) 100,00 %
23.06.2023 21:08 24,3 C 22,8 C 18,9 C 64 % 1024,2 hPa 0,0 l/m 0 min 0 min 19 W/m 3,2 km/h (1 Bft) 97,14 %
23.06.2023 21:10 24,3 C 22,8 C 18,9 C 65 % 1024,3 hPa 0,0 l/m 0 min 0 min 18 W/m 3,2 km/h (1 Bft) 100,00 %
23.06.2023 21:12 24,3 C 22,2 C 18,9 C 65 % 1024,2 hPa 0,0 l/m 0 min 0 min 17 W/m 0,0 km/h (0 Bft) 100,00 %
23.06.2023 21:14 24,2 C 22,2 C 18,9 C 65 % 1024,2 hPa 0,0 l/m 0 min 0 min 15 W/m 0,0 km/h (0 Bft) 100,00 %
23.06.2023 21:16 24,2 C 22,2 C 18,9 C 66 % 1024,2 hPa 0,0 l/m 0 min 0 min 14 W/m 3,2 km/h (1 Bft) 100,00 %
23.06.2023 21:18 24,1 C 22,2 C 18,9 C 66 % 1024,2 hPa 0,0 l/m 0 min 0 min 14 W/m 0,0 km/h (0 Bft) 97,87 %
23.06.2023 21:20 24,1 C 22,2 C 18,3 C 67 % 1024,2 hPa 0,0 l/m 0 min 0 min 12 W/m 0,0 km/h (0 Bft) 100,00 %
23.06.2023 21:22 24,1 C 21,7 C 18,3 C 68 % 1024,2 hPa 0,0 l/m 0 min 0 min 12 W/m 0,0 km/h (0 Bft) 100,00 %
23.06.2023 21:24 23,9 C 21,7 C 18,3 C 68 % 1024,2 hPa 0,0 l/m 0 min 0 min 11 W/m 0,0 km/h (0 Bft) 100,00 %
23.06.2023 21:26 23,9 C 21,7 C 18,3 C 70 % 1024,2 hPa 0,0 l/m 0 min 0 min 11 W/m 0,0 km/h (0 Bft) 97,87 %
23.06.2023 21:28 23,8 C 21,7 C 17,8 C 70 % 1024,2 hPa 0,0 l/m 0 min 0 min 11 W/m 0,0 km/h (0 Bft) 95,74 %
23.06.2023 21:30 23,8 C 21,7 C 17,8 C 71 % 1024,3 hPa 0,0 l/m 0 min 0 min 10 W/m 0,0 km/h (0 Bft) 95,74 %
23.06.2023 21:32 23,7 C 21,1 C 17,8 C 70 % 1024,3 hPa 0,0 l/m 0 min 0 min 9 W/m 3,2 km/h (1 Bft) 95,65 %
23.06.2023 21:34 23,6 C 21,1 C 17,8 C 70 % 1024,2 hPa 0,0 l/m 0 min 0 min 9 W/m 0,0 km/h (0 Bft) 97,87 %
23.06.2023 21:36 23,6 C 21,1 C 17,8 C 71 % 1024,2 hPa 0,0 l/m 0 min 0 min 9 W/m 0,0 km/h (0 Bft) 95,74 %
23.06.2023 21:38 23,4 C 21,1 C 17,8 C 72 % 1024,3 hPa 0,0 l/m 0 min 0 min 9 W/m 0,0 km/h (0 Bft) 97,87 %
23.06.2023 21:40 23,4 C 21,1 C 17,8 C 72 % 1024,3 hPa 0,0 l/m 0 min 0 min 9 W/m 0,0 km/h (0 Bft) 95,74 %
23.06.2023 21:42 23,3 C 21,1 C 17,8 C 72 % 1024,4 hPa 0,0 l/m 0 min 0 min 8 W/m 0,0 km/h (0 Bft) 97,87 %
23.06.2023 21:44 23,2 C 21,1 C 17,8 C 73 % 1024,4 hPa 0,0 l/m 0 min 0 min 7 W/m 0,0 km/h (0 Bft) 93,48 %
23.06.2023 21:46 23,2 C 21,1 C 17,2 C 73 % 1024,4 hPa 0,0 l/m 0 min 0 min 7 W/m 0,0 km/h (0 Bft) 93,62 %
23.06.2023 21:48 23,1 C 21,1 C 17,2 C 72 % 1024,5 hPa 0,0 l/m 0 min 0 min 5 W/m 0,0 km/h (0 Bft) 95,74 %
23.06.2023 21:50 23,1 C 21,1 C 17,2 C 73 % 1024,5 hPa 0,0 l/m 0 min 0 min 5 W/m 0,0 km/h (0 Bft) 95,74 %
23.06.2023 21:52 23,0 C 20,6 C 17,2 C 74 % 1024,6 hPa 0,0 l/m 0 min 0 min 5 W/m 0,0 km/h (0 Bft) 93,62 %
23.06.2023 21:54 22,9 C 20,6 C 17,2 C 73 % 1024,6 hPa 0,0 l/m 0 min 0 min 4 W/m 0,0 km/h (0 Bft) 95,74 %
23.06.2023 21:56 22,8 C 20,6 C 17,2 C 73 % 1024,6 hPa 0,0 l/m 0 min 0 min 0 W/m 0,0 km/h (0 Bft) 95,74 %
23.06.2023 21:58 22,7 C 20,6 C 17,2 C 73 % 1024,6 hPa 0,0 l/m 0 min 0 min 0 W/m 0,0 km/h (0 Bft) 91,30 %
23.06.2023 22:00 22,7 C 20,6 C 17,2 C 73 % 1024,7 hPa 0,0 l/m 0 min 0 min 0 W/m 0,0 km/h (0 Bft) 93,62 %
23.06.2023 22:02 22,6 C 20,6 C 17,2 C 74 % 1024,7 hPa 0,0 l/m 0 min 0 min 0 W/m 0,0 km/h (0 Bft) 89,36 %
23.06.2023 22:04 22,6 C 20,6 C 17,2 C 74 % 1024,7 hPa 0,0 l/m 0 min 0 min 0 W/m 0,0 km/h (0 Bft) 93,62 %
23.06.2023 22:06 22,4 C 20,6 C 17,2 C 74 % 1024,8 hPa 0,0 l/m 0 min 0 min 0 W/m 0,0 km/h (0 Bft) 91,67 %
23.06.2023 22:08 22,3 C 20,6 C 17,2 C 74 % 1024,8 hPa 0,0 l/m 0 min 0 min 0 W/m 0,0 km/h (0 Bft) 88,57 %
23.06.2023 22:10 22,3 C 20,0 C 16,7 C 75 % 1024,8 hPa 0,0 l/m 0 min 0 min 0 W/m 0,0 km/h (0 Bft) 93,62 %
23.06.2023 22:12 22,2 C 20,0 C 16,7 C 75 % 1024,8 hPa 0,0 l/m 0 min 0 min 0 W/m 0,0 km/h (0 Bft) 93,62 %
23.06.2023 22:14 22,2 C 20,0 C 16,7 C 76 % 1024,7 hPa 0,0 l/m 0 min 0 min 0 W/m 0,0 km/h (0 Bft) 86,96 %
23.06.2023 22:16 22,1 C 20,0 C 16,7 C 76 % 1024,8 hPa 0,0 l/m 0 min 0 min 0 W/m 0,0 km/h (0 Bft) 93,62 %
23.06.2023 22:18 22,1 C 20,0 C 16,7 C 75 % 1024,8 hPa 0,0 l/m 0 min 0 min 0 W/m 0,0 km/h (0 Bft) 95,74 %
23.06.2023 22:20 22,0 C 20,0 C 16,7 C 76 % 1024,7 hPa 0,0 l/m 0 min 0 min 0 W/m 0,0 km/h (0 Bft) 97,87 %
23.06.2023 22:22 21,9 C 20,0 C 16,7 C 77 % 1024,8 hPa 0,0 l/m 0 min 0 min 0 W/m 0,0 km/h (0 Bft) 97,87 %
23.06.2023 22:24 21,9 C 20,0 C 16,7 C 77 % 1024,7 hPa 0,0 l/m 0 min 0 min 0 W/m 0,0 km/h (0 Bft) 97,87 %
23.06.2023 22:26 21,8 C 20,0 C 16,7 C 77 % 1024,8 hPa 0,0 l/m 0 min 0 min 0 W/m 0,0 km/h (0 Bft) 97,87 %
23.06.2023 22:28 21,8 C 19,4 C 16,7 C 77 % 1024,8 hPa 0,0 l/m 0 min 0 min 0 W/m 0,0 km/h (0 Bft) 97,83 %
23.06.2023 22:30 21,7 C 19,4 C 16,7 C 77 % 1024,8 hPa 0,0 l/m 0 min 0 min 0 W/m 0,0 km/h (0 Bft) 97,87 %
23.06.2023 22:32 21,6 C 19,4 C 16,7 C 77 % 1024,8 hPa 0,0 l/m 0 min 0 min 0 W/m 0,0 km/h (0 Bft) 95,74 %
23.06.2023 22:34 21,6 C 19,4 C 16,7 C 77 % 1024,7 hPa 0,0 l/m 0 min 0 min 0 W/m 0,0 km/h (0 Bft) 100,00 %
23.06.2023 22:36 21,6 C 19,4 C 16,7 C 78 % 1024,8 hPa 0,0 l/m 0 min 0 min 0 W/m 0,0 km/h (0 Bft) 95,74 %
23.06.2023 22:38 21,5 C 19,4 C 16,7 C 78 % 1024,8 hPa 0,0 l/m 0 min 0 min 0 W/m 0,0 km/h (0 Bft) 100,00 %
23.06.2023 22:40 21,4 C 19,4 C 16,1 C 78 % 1024,7 hPa 0,0 l/m 0 min 0 min 0 W/m 0,0 km/h (0 Bft) 100,00 %
23.06.2023 22:42 21,4 C 19,4 C 16,1 C 79 % 1024,8 hPa 0,0 l/m 0 min 0 min 0 W/m 0,0 km/h (0 Bft) 100,00 %
23.06.2023 22:44 21,3 C 19,4 C 16,1 C 79 % 1024,8 hPa 0,0 l/m 0 min 0 min 0 W/m 0,0 km/h (0 Bft) 100,00 %
23.06.2023 22:46 21,2 C 18,9 C 16,1 C 79 % 1024,7 hPa 0,0 l/m 0 min 0 min 0 W/m 0,0 km/h (0 Bft) 97,87 %
23.06.2023 22:48 21,2 C 18,9 C 16,1 C 78 % 1024,7 hPa 0,0 l/m 0 min 0 min 0 W/m 0,0 km/h (0 Bft) 100,00 %
23.06.2023 22:50 21,1 C 18,9 C 16,1 C 79 % 1024,8 hPa 0,0 l/m 0 min 0 min 0 W/m 0,0 km/h (0 Bft) 97,87 %
23.06.2023 22:52 21,1 C 18,9 C 16,1 C 79 % 1024,8 hPa 0,0 l/m 0 min 0 min 0 W/m 0,0 km/h (0 Bft) 100,00 %
23.06.2023 22:54 21,0 C 18,9 C 16,1 C 79 % 1024,7 hPa 0,0 l/m 0 min 0 min 0 W/m 0,0 km/h (0 Bft) 100,00 %
23.06.2023 22:56 20,9 C 18,9 C 16,1 C 80 % 1024,7 hPa 0,0 l/m 0 min 0 min 0 W/m 0,0 km/h (0 Bft) 97,87 %
23.06.2023 22:58 20,9 C 18,9 C 16,1 C 80 % 1024,7 hPa 0,0 l/m 0 min 0 min 0 W/m 0,0 km/h (0 Bft) 100,00 %
23.06.2023 23:00 20,9 C 18,9 C 15,6 C 80 % 1024,7 hPa 0,0 l/m 0 min 0 min 0 W/m 0,0 km/h (0 Bft) 100,00 %
23.06.2023 23:02 20,8 C 18,9 C 15,6 C 80 % 1024,7 hPa 0,0 l/m 0 min 0 min 0 W/m 0,0 km/h (0 Bft) 100,00 %
23.06.2023 23:04 20,8 C 18,9 C 15,6 C 80 % 1024,7 hPa 0,0 l/m 0 min 0 min 0 W/m 0,0 km/h (0 Bft) 100,00 %
23.06.2023 23:06 20,7 C 18,9 C 15,6 C 81 % 1024,7 hPa 0,0 l/m 0 min 0 min 0 W/m 0,0 km/h (0 Bft) 97,87 %
23.06.2023 23:08 20,6 C 18,9 C 15,6 C 81 % 1024,7 hPa 0,0 l/m 0 min 0 min 0 W/m 0,0 km/h (0 Bft) 97,87 %
23.06.2023 23:10 20,6 C 18,9 C 15,6 C 81 % 1024,7 hPa 0,0 l/m 0 min 0 min 0 W/m 0,0 km/h (0 Bft) 100,00 %
23.06.2023 23:12 20,6 C 18,9 C 15,6 C 81 % 1024,7 hPa 0,0 l/m 0 min 0 min 0 W/m 0,0 km/h (0 Bft) 97,87 %
23.06.2023 23:14 20,5 C 18,9 C 15,6 C 81 % 1024,7 hPa 0,0 l/m 0 min 0 min 0 W/m 0,0 km/h (0 Bft) 100,00 %
23.06.2023 23:16 20,4 C 18,9 C 15,6 C 81 % 1024,7 hPa 0,0 l/m 0 min 0 min 0 W/m 0,0 km/h (0 Bft) 100,00 %
23.06.2023 23:18 20,3 C 18,3 C 15,6 C 82 % 1024,8 hPa 0,0 l/m 0 min 0 min 0 W/m 0,0 km/h (0 Bft) 100,00 %
23.06.2023 23:20 20,3 C 18,3 C 15,6 C 82 % 1024,7 hPa 0,0 l/m 0 min 0 min 0 W/m 0,0 km/h (0 Bft) 97,87 %
23.06.2023 23:22 20,3 C 18,3 C 15,6 C 82 % 1024,7 hPa 0,0 l/m 0 min 0 min 0 W/m 0,0 km/h (0 Bft) 100,00 %
23.06.2023 23:24 20,2 C 18,3 C 15,6 C 82 % 1024,7 hPa 0,0 l/m 0 min 0 min 0 W/m 0,0 km/h (0 Bft) 100,00 %
23.06.2023 23:26 20,2 C 18,3 C 15,6 C 82 % 1024,7 hPa 0,0 l/m 0 min 0 min 0 W/m 0,0 km/h (0 Bft) 98,25 %
23.06.2023 23:28 20,1 C 18,3 C 15,6 C 82 % 1024,7 hPa 0,0 l/m 0 min 0 min 0 W/m 0,0 km/h (0 Bft) 100,00 %
23.06.2023 23:30 20,1 C 18,3 C 15,6 C 82 % 1024,8 hPa 0,0 l/m 0 min 0 min 0 W/m 0,0 km/h (0 Bft) 100,00 %
23.06.2023 23:32 20,1 C 18,3 C 15,6 C 83 % 1024,8 hPa 0,0 l/m 0 min 0 min 0 W/m 0,0 km/h (0 Bft) 100,00 %
23.06.2023 23:34 20,0 C 18,3 C 15,6 C 83 % 1024,8 hPa 0,0 l/m 0 min 0 min 0 W/m 0,0 km/h (0 Bft) 100,00 %
23.06.2023 23:36 20,0 C 18,3 C 15,0 C 83 % 1024,8 hPa 0,0 l/m 0 min 0 min 0 W/m 0,0 km/h (0 Bft) 100,00 %
23.06.2023 23:38 19,9 C 18,3 C 15,0 C 83 % 1024,8 hPa 0,0 l/m 0 min 0 min 0 W/m 0,0 km/h (0 Bft) 97,87 %
23.06.2023 23:40 19,9 C 17,8 C 15,0 C 83 % 1024,8 hPa 0,0 l/m 0 min 0 min 0 W/m 0,0 km/h (0 Bft) 97,87 %
23.06.2023 23:42 19,8 C 17,8 C 15,0 C 83 % 1024,8 hPa 0,0 l/m 0 min 0 min 0 W/m 0,0 km/h (0 Bft) 97,87 %
23.06.2023 23:44 19,8 C 17,8 C 15,0 C 83 % 1024,8 hPa 0,0 l/m 0 min 0 min 0 W/m 0,0 km/h (0 Bft) 95,74 %
23.06.2023 23:46 19,7 C 17,8 C 15,0 C 83 % 1024,8 hPa 0,0 l/m 0 min 0 min 0 W/m 0,0 km/h (0 Bft) 97,87 %
23.06.2023 23:48 19,7 C 17,8 C 15,0 C 84 % 1024,9 hPa 0,0 l/m 0 min 0 min 0 W/m 0,0 km/h (0 Bft) 97,83 %
23.06.2023 23:50 19,7 C 17,8 C 15,0 C 84 % 1024,8 hPa 0,0 l/m 0 min 0 min 0 W/m 0,0 km/h (0 Bft) 97,87 %
23.06.2023 23:52 19,6 C 17,8 C 15,0 C 84 % 1024,8 hPa 0,0 l/m 0 min 0 min 0 W/m 0,0 km/h (0 Bft) 97,87 %
23.06.2023 23:54 19,6 C 17,8 C 15,0 C 84 % 1024,9 hPa 0,0 l/m 0 min 0 min 0 W/m 0,0 km/h (0 Bft) 95,83 %
23.06.2023 23:56 19,6 C 17,8 C 15,0 C 84 % 1024,9 hPa 0,0 l/m 0 min 0 min 0 W/m 0,0 km/h (0 Bft) 97,87 %
23.06.2023 23:58 19,5 C 17,8 C 15,0 C 84 % 1024,9 hPa 0,0 l/m 0 min 0 min 0 W/m 0,0 km/h (0 Bft) 97,87 %
_ Min-Zeit 03:38 05:06 01:18 16:40 00:00 - - - - 04:18 22:14
Minimum _ 15,7 C 15,0 C 12,2 C 54 % 1015,3 hPa - - - - 0,0 km/h (0 Bft) 86,96 %
_ Max-Zeit 17:42 17:40 13:48 00:00 23:48 00:00 18:10 00:15 15:48 00:18 00:08
Maximum _ 27,9 C 32,2 C 31,1 C 99 % 1024,9 hPa 0,0 l/m 5 min 5 min 939 W/m 32,2 km/h
N (5 Bft)
100,00 %
Durchschnitt _ 21,4 C 22,6 C 18,5 C 78 % 1022,0 hPa #0,0 l/m #11:42 h #46 min. 489 W/m 11,8 km/h (2 Bft) 97,48 %
© 2023 W. Hausmann